Flight Track Log - Related Links

Times and Time Zones

All times are in EDT time to prevent confusion due to time zone crossing. See the AFL150 flight status page for this flight to view local times or setup timezone preferences in your user account.

Time Position Orientation Groundspeed Altitude Reporting Facility
EDT Latitude Longitude Course Direction KTS MPH feet Rate Location/Type
Sat 07:19:05 AM 55.9630 37.3570 256° West 185 213 1,500  Level FlightAware ADS-B
Sat 07:19:20 AM 55.9600 37.3330 257° West 189 217 2,100 2,229 Climbing FlightAware ADS-B
Sat 07:19:40 AM 55.9560 37.3030 257° West 185 213 2,800 1,650 Climbing FlightAware ADS-B
Sat 07:20:00 AM 55.9510 37.2730 253° West 191 220 3,200 1,350 Climbing FlightAware ADS-B
Sat 07:20:20 AM 55.9460 37.2420 254° West 198 228 3,700 1,371 Climbing FlightAware ADS-B
Sat 07:20:35 AM 55.9440 37.2170 262° West 210 242 4,000 857 Climbing FlightAware ADS-B
Sat 07:20:55 AM 55.9460 37.1850 276° West 219 252 4,200 923 Climbing FlightAware ADS-B
Sat 07:21:14 AM 55.9500 37.1460 280° West 252 290 4,600 1,385 Climbing FlightAware ADS-B
Sat 07:21:34 AM 55.9570 37.1090 289° West 266 306 5,100 1,867 Climbing FlightAware ADS-B
Sat 07:21:59 AM 55.9700 37.0630 297° West 272 313 6,000 2,133 Climbing FlightAware ADS-B
Sat 07:22:19 AM 55.9830 37.0170 297° West 284 327 6,700 2,488 Climbing FlightAware ADS-B
Sat 07:22:40 AM 55.9950 36.9730 296° West 284 327 7,700 2,667 Climbing FlightAware ADS-B
Sat 07:23:04 AM 56.0100 36.9170 296° West 289 333 8,700 2,455 Climbing FlightAware ADS-B
Sat 07:23:24 AM 56.0220 36.8720 296° West 293 337 9,500 1,855 Climbing FlightAware ADS-B
Sat 07:23:59 AM 56.0420 36.7980 296° West 315 362 10,400 1,662 Climbing FlightAware ADS-B
Sat 07:24:29 AM 56.0610 36.7260 295° West 326 375 11,300 1,629 Climbing FlightAware ADS-B
Sat 07:25:09 AM 56.0890 36.6190 295° West 355 409 12,300 2,000 Climbing FlightAware ADS-B
Sat 07:25:44 AM 56.1130 36.5310 296° West 353 406 13,800 2,850 Climbing FlightAware ADS-B
Sat 07:25:49 AM 56.1210 36.5150 312° West 351 404 14,200 2,400 Climbing FlightAware ADS-B
Sat 07:26:04 AM 56.1360 36.4950 323° Northwest 351 404 14,600 2,160 Climbing FlightAware ADS-B
Sat 07:26:39 AM 56.1910 36.4470 334° Northwest 356 410 16,000 2,229 Climbing FlightAware ADS-B
Sat 07:27:14 AM 56.2420 36.3990 332° Northwest 359 413 17,200 1,971 Climbing FlightAware ADS-B
Sat 07:27:49 AM 56.2900 36.3550 333° Northwest 364 419 18,300 1,886 Climbing FlightAware ADS-B
Sat 07:28:24 AM 56.3470 36.3020 333° Northwest 372 428 19,400 1,800 Climbing FlightAware ADS-B
Sat 07:28:59 AM 56.4000 36.2530 333° Northwest 377 434 20,400 1,629 Climbing FlightAware ADS-B
Sat 07:29:34 AM 56.4490 36.2070 333° Northwest 380 437 21,300 2,091 Climbing FlightAware ADS-B
Sat 07:30:05 AM 56.5030 36.1560 332° Northwest 382 440 22,700 1,859 Climbing FlightAware ADS-B
Sat 07:30:45 AM 56.5650 36.0970 332° Northwest 385 443 23,500 1,286 Climbing FlightAware ADS-B
Sat 07:31:15 AM 56.6160 36.0490 333° Northwest 390 449 24,200 1,360 Climbing FlightAware ADS-B
Sat 07:32:00 AM 56.6880 35.9800 332° Northwest 397 457 25,200 1,275 Climbing FlightAware ADS-B
Sat 07:32:35 AM 56.7460 35.9260 333° Northwest 403 464 25,900 1,200 Climbing FlightAware ADS-B
Sat 07:33:10 AM 56.8030 35.8700 332° Northwest 407 468 26,600 1,286 Climbing FlightAware ADS-B
Sat 07:33:45 AM 56.8630 35.8130 333° Northwest 410 472 27,400 1,286 Climbing FlightAware ADS-B
Sat 07:34:20 AM 56.9220 35.7560 332° Northwest 412 474 28,100 1,114 Climbing FlightAware ADS-B
Sat 07:34:55 AM 56.9800 35.7000 332° Northwest 416 479 28,700 943 Climbing FlightAware ADS-B
Sat 07:35:30 AM 57.0390 35.6430 332° Northwest 421 484 29,200 1,029 Climbing FlightAware ADS-B
Sat 07:36:05 AM 57.1000 35.5830 332° Northwest 420 483 29,900 1,200 Climbing FlightAware ADS-B
Sat 07:36:40 AM 57.1600 35.5240 332° Northwest 420 483 30,600 1,114 Climbing FlightAware ADS-B
Sat 07:37:15 AM 57.2200 35.4660 332° Northwest 421 484 31,200 1,029 Climbing FlightAware ADS-B
Sat 07:37:50 AM 57.2800 35.4070 332° Northwest 421 484 31,800 1,114 Climbing FlightAware ADS-B
Sat 07:38:25 AM 57.3400 35.3470 332° Northwest 417 480 32,500 1,286 Climbing FlightAware ADS-B
Sat 07:39:00 AM 57.3980 35.2890 332° Northwest 410 472 33,300 1,000 Climbing FlightAware ADS-B
Sat 07:39:37 AM 57.4570 35.2300 332° Northwest 412 474 33,700 600 Climbing FlightAware ADS-B
Sat 07:40:10 AM 57.5160 35.1710 332° Northwest 416 479 34,000 265 Climbing FlightAware ADS-B
Sat 07:40:45 AM 57.5750 35.1120 332° Northwest 425 489 34,000  Level FlightAware ADS-B
Sat 07:41:20 AM 57.6360 35.0500 331° Northwest 423 487 34,000  Level FlightAware ADS-B
Sat 07:41:55 AM 57.6960 34.9900 332° Northwest 419 482 34,000  Level FlightAware ADS-B
Sat 07:42:30 AM 57.7510 34.9180 325° Northwest 420 483 34,000  Level FlightAware ADS-B
Sat 07:43:05 AM 57.8040 34.8440 323° Northwest 411 473 34,000  Level FlightAware ADS-B
Sat 07:43:40 AM 57.8580 34.7720 325° Northwest 408 470 34,000  Level FlightAware ADS-B
Sat 07:44:15 AM 57.9110 34.6990 324° Northwest 407 468 34,000  Level FlightAware ADS-B
Sat 07:44:50 AM 57.9640 34.6250 323° Northwest 406 467 34,000  Level FlightAware ADS-B
Sat 07:45:25 AM 58.0180 34.5510 324° Northwest 407 468 34,000  Level FlightAware ADS-B
Sat 07:46:05 AM 58.0780 34.4660 323° Northwest 407 468 34,000  Level FlightAware ADS-B
Sat 07:46:40 AM 58.1290 34.3930 323° Northwest 408 470 34,000  Level FlightAware ADS-B
Sat 07:47:15 AM 58.1740 34.2980 312° West 415 478 34,000  Level FlightAware ADS-B
Sat 07:47:55 AM 58.2210 34.1910 310° West 416 479 34,000  Level FlightAware ADS-B
Sat 07:48:30 AM 58.2660 34.0890 310° West 417 480 34,000  Level FlightAware ADS-B
Sat 07:49:12 AM 58.3100 33.9870 309° West 417 480 34,000  Level FlightAware ADS-B
Sat 07:49:48 AM 58.3470 33.9000 309° West 417 480 34,000  Level FlightAware ADS-B
Sat 07:50:26 AM 58.3980 33.7850 310° West 419 482 34,000  Level FlightAware ADS-B
Sat 07:50:59 AM 58.4390 33.6890 309° West 419 482 34,000  Level FlightAware ADS-B
Sat 07:51:49 AM 58.4840 33.5830 309° West 419 482 34,000  Level FlightAware ADS-B
Sat 07:52:45 AM 58.5530 33.4210 309° West 420 483 34,000  Level FlightAware ADS-B
Sat 07:53:21 AM 58.5910 33.3320 309° West 420 483 34,000  Level FlightAware ADS-B
Sat 07:53:57 AM 58.6280 33.2440 309° West 420 483 34,000  Level FlightAware ADS-B
Sat 07:54:45 AM 58.7070 33.0580 309° West 419 482 34,000  Level FlightAware ADS-B
Sat 07:55:26 AM 58.7610 32.9290 309° West 419 482 34,000  Level FlightAware ADS-B
Sat 07:55:59 AM 58.8040 32.8270 309° West 421 484 34,000  Level FlightAware ADS-B
Sat 07:56:38 AM 58.8470 32.7220 308° West 422 486 34,000  Level FlightAware ADS-B
Sat 07:57:10 AM 58.8900 32.6170 308° West 422 486 34,000  Level FlightAware ADS-B
Sat 07:57:48 AM 58.9370 32.5030 309° West 423 487 34,000  Level FlightAware ADS-B
Sat 07:58:20 AM 58.9730 32.4140 308° West 422 486 34,000  Level FlightAware ADS-B
Sat 07:58:56 AM 59.0140 32.3150 309° West 422 486 34,000  Level FlightAware ADS-B
Sat 07:59:34 AM 59.0640 32.1920 308° West 423 487 34,000  Level FlightAware ADS-B
Sat 08:00:13 AM 59.1100 32.0760 308° West 422 486 34,000  Level FlightAware ADS-B
Sat 08:00:54 AM 59.1580 31.9570 308° West 423 487 34,000  Level FlightAware ADS-B
Sat 08:01:32 AM 59.2070 31.8350 308° West 424 488 34,000  Level FlightAware ADS-B
Sat 08:02:11 AM 59.2510 31.7230 308° West 424 488 34,000  Level FlightAware ADS-B
Sat 08:02:49 AM 59.2990 31.6010 308° West 426 490 34,000  Level FlightAware ADS-B
Sat 08:03:28 AM 59.3410 31.4750 303° West 429 494 34,000  Level FlightAware ADS-B
Sat 08:04:08 AM 59.3610 31.3300 285° West 434 499 34,000  Level FlightAware ADS-B
Sat 08:04:41 AM 59.3750 31.1990 282° West 434 499 34,000  Level FlightAware ADS-B
Sat 08:05:20 AM 59.3910 31.0530 282° West 433 498 34,000  Level FlightAware ADS-B
Sat 08:06:00 AM 59.4070 30.9080 282° West 434 499 34,000  Level FlightAware ADS-B
Sat 08:06:33 AM 59.4210 30.7730 282° West 433 498 34,000  Level FlightAware ADS-B
Sat 08:07:15 AM 59.4380 30.6170 282° West 433 498 34,000  Level FlightAware ADS-B
Sat 08:07:50 AM 59.4510 30.4820 281° West 433 498 34,000  Level FlightAware ADS-B
Sat 08:08:29 AM 59.4670 30.3300 282° West 433 498 34,000  Level FlightAware ADS-B
Sat 08:09:09 AM 59.4860 30.1370 281° West 434 499 34,000  Level FlightAware ADS-B
Sat 08:09:44 AM 59.4990 30.0000 281° West 436 502 34,000  Level FlightAware ADS-B
Sat 08:10:18 AM 59.5120 29.8700 281° West 438 504 34,000  Level FlightAware ADS-B
Sat 08:11:00 AM 59.5260 29.7200 280° West 441 507 34,000  Level FlightAware ADS-B
Sat 08:11:35 AM 59.5390 29.5820 281° West 440 506 34,000  Level FlightAware ADS-B
Sat 08:12:21 AM 59.5580 29.3830 281° West 439 505 34,000  Level FlightAware ADS-B
Sat 08:12:58 AM 59.5700 29.2540 280° West 438 504 34,000  Level FlightAware ADS-B
Sat 08:13:36 AM 59.5840 29.1000 280° West 436 502 34,000  Level FlightAware ADS-B
Sat 08:14:14 AM 59.5980 28.9430 280° West 433 498 34,000  Level FlightAware ADS-B
Sat 08:14:51 AM 59.6110 28.7980 280° West 433 498 34,000  Level FlightAware ADS-B
Sat 08:15:26 AM 59.6280 28.6670 284° West 432 497 34,000  Level FlightAware ADS-B
Sat 08:16:01 AM 59.6480 28.5360 287° West 434 499 34,000  Level FlightAware ADS-B
Sat 08:16:35 AM 59.6670 28.4050 286° West 433 498 34,000  Level FlightAware ADS-B
Sat 08:17:10 AM 59.6860 28.2700 286° West 434 499 34,000  Level FlightAware ADS-B
Sat 08:17:45 AM 59.7050 28.1380 286° West 435 501 34,000  Level FlightAware ADS-B
Sat 08:18:21 AM 59.7240 28.0030 286° West 435 501 34,000  Level FlightAware ADS-B
Sat 08:18:58 AM 59.7450 27.8570 286° West 435 501 34,000  Level FlightAware ADS-B
Sat 08:19:30 AM 59.7620 27.7340 285° West 435 501 34,000  Level FlightAware ADS-B
Sat 08:20:05 AM 59.7800 27.6000 285° West 436 502 34,000  Level FlightAware ADS-B
Sat 08:20:40 AM 59.7990 27.4640 286° West 436 502 34,000  Level FlightAware ADS-B
Sat 08:21:17 AM 59.8170 27.3280 285° West 435 501 34,000  Level FlightAware ADS-B
Sat 08:21:53 AM 59.8370 27.1830 285° West 434 499 34,000  Level FlightAware ADS-B
Sat 08:22:22 AM 59.8520 27.0710 285° West 434 499 34,000  Level FlightAware ADS-B
Sat 08:23:01 AM 59.8710 26.9230 284° West 435 501 34,000  Level FlightAware ADS-B
Sat 08:23:37 AM 59.8900 26.7820 285° West 434 499 34,000  Level FlightAware ADS-B
Sat 08:24:10 AM 59.9060 26.6540 284° West 433 498 34,000  Level FlightAware ADS-B
Sat 08:24:45 AM 59.9230 26.5240 285° West 433 498 34,000  Level FlightAware ADS-B
Sat 08:25:21 AM 59.9430 26.3800 286° West 433 498 34,000  Level FlightAware ADS-B
Sat 08:25:58 AM 59.9710 26.2450 293° West 435 501 34,000  Level FlightAware ADS-B
Sat 08:26:31 AM 60.0020 26.1300 298° West 438 504 34,000  Level FlightAware ADS-B
Sat 08:27:03 AM 60.0410 26.0240 306° West 442 509 34,000  Level FlightAware ADS-B
Sat 08:27:41 AM 60.0920 25.9140 313° West 447 514 34,000  Level FlightAware ADS-B
Sat 08:28:15 AM 60.1490 25.8200 321° Northwest 450 518 34,000  Level FlightAware ADS-B
Sat 08:28:53 AM 60.2070 25.7160 318° Northwest 445 512 34,000  Level FlightAware ADS-B
Sat 08:29:25 AM 60.2480 25.6150 309° West 441 507 34,000  Level FlightAware ADS-B
Sat 08:30:01 AM 60.2880 25.4900 303° West 438 504 34,000  Level FlightAware ADS-B
Sat 08:30:38 AM 60.3230 25.3600 299° West 439 505 34,000  Level FlightAware ADS-B
Sat 08:31:10 AM 60.3560 25.2470 301° West 440 506 34,000  Level FlightAware ADS-B
Sat 08:31:45 AM 60.3920 25.1190 300° West 441 507 34,000  Level FlightAware ADS-B
Sat 08:32:22 AM 60.4270 24.9930 299° West 441 507 34,000  Level FlightAware ADS-B
Sat 08:32:58 AM 60.4640 24.8580 299° West 441 507 34,000  Level FlightAware ADS-B
Sat 08:33:29 AM 60.4940 24.7500 299° West 441 507 34,000  Level FlightAware ADS-B
Sat 08:34:01 AM 60.5260 24.6310 299° West 440 506 34,000  Level FlightAware ADS-B
Sat 08:34:42 AM 60.5670 24.4810 299° West 440 506 34,000  Level FlightAware ADS-B
Sat 08:35:17 AM 60.6000 24.3590 299° West 440 506 34,000  Level FlightAware ADS-B
Sat 08:35:47 AM 60.6300 24.2460 298° West 440 506 34,000  Level FlightAware ADS-B
Sat 08:36:26 AM 60.6670 24.1060 298° West 441 507 34,000  Level FlightAware ADS-B
Sat 08:36:59 AM 60.6990 23.9870 299° West 440 506 34,000  Level FlightAware ADS-B
Sat 08:37:36 AM 60.7350 23.8490 298° West 441 507 34,000  Level FlightAware ADS-B
Sat 08:38:15 AM 60.7730 23.7070 299° West 439 505 34,000  Level FlightAware ADS-B
Sat 08:38:52 AM 60.8060 23.5760 297° West 440 506 34,000  Level FlightAware ADS-B
Sat 08:39:28 AM 60.8390 23.4510 298° West 441 507 34,000  Level FlightAware ADS-B
Sat 08:40:03 AM 60.8730 23.3180 298° West 441 507 34,000  Level FlightAware ADS-B
Sat 08:40:36 AM 60.9060 23.1900 298° West 442 509 34,000  Level FlightAware ADS-B
Sat 08:41:25 AM 60.9510 23.0120 298° West 438 504 34,000  Level FlightAware ADS-B
Sat 08:42:00 AM 60.9830 22.8830 297° West 436 502 34,000  Level FlightAware ADS-B
Sat 08:42:30 AM 61.0160 22.7800 304° West 451 519 34,000  Level FlightAware ADS-B
Sat 08:43:00 AM 61.0640 22.6850 316° Northwest 451 519 34,000  Level FlightAware ADS-B
Sat 08:43:40 AM 61.1240 22.5670 317° Northwest 454 522 34,000  Level FlightAware ADS-B
Sat 08:44:21 AM 61.1840 22.4410 315° West 454 522 34,000  Level FlightAware ADS-B
Sat 08:44:55 AM 61.2330 22.3390 315° West 456 525 34,000  Level FlightAware ADS-B
Sat 08:45:30 AM 61.2870 22.2260 315° West 456 525 34,000  Level FlightAware ADS-B
Sat 08:46:05 AM 61.3390 22.1180 315° West 456 525 34,000  Level FlightAware ADS-B
Sat 08:46:40 AM 61.3910 22.0080 315° West 456 525 34,000  Level FlightAware ADS-B
Sat 08:47:16 AM 61.4420 21.9010 315° West 455 524 34,000  Level FlightAware ADS-B
Sat 08:47:50 AM 61.4940 21.7900 314° West 454 522 34,000 435 Level FlightAware ADS-B
Sat 08:48:25 AM 61.5450 21.6820 315° West 446 513 34,500 943 Climbing FlightAware ADS-B
Sat 08:49:00 AM 61.5960 21.5720 314° West 444 511 35,100 857 Climbing FlightAware ADS-B
Sat 08:49:35 AM 61.6460 21.4640 314° West 443 510 35,500 686 Climbing FlightAware ADS-B
Sat 08:50:10 AM 61.6970 21.3550 315° West 443 510 35,900 429 Climbing FlightAware ADS-B
Sat 08:50:45 AM 61.7450 21.2490 314° West 439 505 36,000 86 Climbing FlightAware ADS-B
Sat 08:51:20 AM 61.7950 21.1400 314° West 441 507 36,000  Level FlightAware ADS-B
Sat 08:51:55 AM 61.8450 21.0310 314° West 442 509 36,000  Level FlightAware ADS-B
Sat 08:52:30 AM 61.8950 20.9210 314° West 445 512 36,000  Level FlightAware ADS-B
Sat 08:53:05 AM 61.9430 20.8120 313° West 444 511 36,000  Level FlightAware ADS-B
Sat 08:53:40 AM 61.9940 20.6990 314° West 448 516 36,000  Level FlightAware ADS-B
Sat 08:54:15 AM 62.0430 20.5910 314° West 448 516 36,000  Level FlightAware ADS-B
Sat 08:54:50 AM 62.0940 20.4740 313° West 450 518 36,000  Level FlightAware ADS-B
Sat 08:55:25 AM 62.1440 20.3610 313° West 451 519 36,000  Level FlightAware ADS-B
Sat 08:56:00 AM 62.1960 20.2440 314° West 452 520 36,000  Level FlightAware ADS-B
Sat 08:56:35 AM 62.2460 20.1290 313° West 454 522 36,000  Level FlightAware ADS-B
Sat 08:57:10 AM 62.2960 20.0120 313° West 453 521 36,000  Level FlightAware ADS-B
Sat 08:57:45 AM 62.3440 19.9010 313° West 455 524 36,000  Level FlightAware ADS-B
Sat 08:58:21 AM 62.3960 19.7810 313° West 455 524 36,000  Level FlightAware ADS-B
Sat 08:58:55 AM 62.4460 19.6630 313° West 456 525 36,000  Level FlightAware ADS-B
Sat 08:59:30 AM 62.4980 19.5420 313° West 458 527 36,000  Level FlightAware ADS-B
Sat 09:00:05 AM 62.5470 19.4260 313° West 459 528 36,000  Level FlightAware ADS-B
Sat 09:00:40 AM 62.5990 19.3020 312° West 460 529 36,000  Level FlightAware ADS-B
Sat 09:01:15 AM 62.6490 19.1830 312° West 459 528 36,000  Level FlightAware ADS-B
Sat 09:01:50 AM 62.7000 19.0590 312° West 459 528 36,000  Level FlightAware ADS-B
Sat 09:02:25 AM 62.7510 18.9380 313° West 463 533 36,000  Level FlightAware ADS-B
Sat 09:03:00 AM 62.8000 18.8190 312° West 461 531 36,000  Level FlightAware ADS-B
Sat 09:03:35 AM 62.8500 18.6960 312° West 461 531 36,000  Level FlightAware ADS-B
Sat 09:04:10 AM 62.8990 18.5750 312° West 462 532 36,000  Level FlightAware ADS-B
Sat 09:04:48 AM 62.9550 18.4360 312° West 462 532 36,000  Level FlightAware ADS-B
Sat 09:05:24 AM 63.0060 18.3100 312° West 462 532 36,000  Level FlightAware ADS-B
Sat 09:05:56 AM 63.0510 18.1990 312° West 463 533 36,000  Level FlightAware ADS-B
Sat 09:06:33 AM 63.1020 18.0690 311° West 462 532 36,000  Level FlightAware ADS-B
Sat 09:07:08 AM 63.1530 17.9420 312° West 460 529 36,000  Level FlightAware ADS-B
Sat 09:07:44 AM 63.2020 17.8160 311° West 459 528 36,000  Level FlightAware ADS-B
Sat 09:08:16 AM 63.2460 17.7040 311° West 457 526 36,000  Level FlightAware ADS-B
Sat 09:08:54 AM 63.2980 17.5690 311° West 458 527 36,000  Level FlightAware ADS-B
Sat 09:09:28 AM 63.3460 17.4470 311° West 457 526 36,000  Level FlightAware ADS-B
Sat 09:10:04 AM 63.3950 17.3180 310° West 455 524 36,000  Level FlightAware ADS-B
Sat 09:10:40 AM 63.4440 17.1910 311° West 453 521 36,000  Level FlightAware ADS-B
Sat 09:11:12 AM 63.4840 17.0840 310° West 452 520 36,000  Level FlightAware ADS-B
Sat 09:11:44 AM 63.5300 16.9650 311° West 453 521 36,000  Level FlightAware ADS-B
Sat 09:12:24 AM 63.5840 16.8210 310° West 452 520 36,000  Level FlightAware ADS-B
Sat 09:13:00 AM 63.6330 16.6890 310° West 451 519 36,000  Level FlightAware ADS-B
Sat 09:13:29 AM 63.6710 16.5870 310° West 452 520 36,000  Level FlightAware ADS-B
Sat 09:14:10 AM 63.7250 16.4420 310° West 452 520 36,000  Level FlightAware ADS-B
Sat 09:14:42 AM 63.7680 16.3250 310° West 453 521 36,000  Level FlightAware ADS-B
Sat 09:15:18 AM 63.8160 16.1940 310° West 453 521 36,000  Level FlightAware ADS-B
Sat 09:15:50 AM 63.8580 16.0770 309° West 453 521 36,000  Level FlightAware ADS-B
Sat 09:16:28 AM 63.9090 15.9360 309° West 452 520 36,000  Level FlightAware ADS-B
Sat 09:17:04 AM 63.9550 15.8070 309° West 452 520 36,000  Level FlightAware ADS-B
Sat 09:17:36 AM 63.9970 15.6900 309° West 450 518 36,000  Level FlightAware ADS-B
Sat 09:18:16 AM 64.0500 15.5410 309° West 450 518 36,000  Level FlightAware ADS-B
Sat 09:18:48 AM 64.0910 15.4250 309° West 450 518 36,000  Level FlightAware ADS-B
Sat 09:19:22 AM 64.1360 15.2980 309° West 450 518 36,000  Level FlightAware ADS-B
Sat 09:20:00 AM 64.1850 15.1580 309° West 451 519 36,000  Level FlightAware ADS-B
Sat 09:20:33 AM 64.2260 15.0390 308° West 452 520 36,000  Level FlightAware ADS-B
Sat 09:21:09 AM 64.2740 14.9000 309° West 453 521 36,000  Level FlightAware ADS-B
Sat 09:21:46 AM 64.3220 14.7610 309° West 454 522 36,000  Level FlightAware ADS-B
Sat 09:22:18 AM 64.3650 14.6340 308° West 453 521 36,000  Level FlightAware ADS-B
Sat 09:22:54 AM 64.4100 14.5010 308° West 452 520 36,000  Level FlightAware ADS-B
Sat 09:23:30 AM 64.4570 14.3620 308° West 450 518 36,000  Level FlightAware ADS-B
Sat 09:24:06 AM 64.5020 14.2260 308° West 450 518 36,000  Level FlightAware ADS-B
Sat 09:24:38 AM 64.5430 14.1030 308° West 451 519 36,000  Level FlightAware ADS-B
Sat 09:25:14 AM 64.5890 13.9650 308° West 450 518 36,000  Level FlightAware ADS-B
Sat 09:25:50 AM 64.6340 13.8280 308° West 452 520 36,000  Level FlightAware ADS-B
Sat 09:26:22 AM 64.6750 13.7050 308° West 450 518 36,000  Level FlightAware ADS-B
Sat 09:26:58 AM 64.7200 13.5640 307° West 449 517 36,000  Level FlightAware ADS-B
Sat 09:27:36 AM 64.7670 13.4210 308° West 447 514 36,000  Level FlightAware ADS-B
Sat 09:28:08 AM 64.8060 13.2990 307° West 447 514 36,000  Level FlightAware ADS-B
Sat 09:28:44 AM 64.8510 13.1570 307° West 445 512 36,000  Level FlightAware ADS-B
Sat 09:29:20 AM 64.8950 13.0190 307° West 444 511 36,000  Level FlightAware ADS-B
Sat 09:29:52 AM 64.9340 12.8950 307° West 445 512 36,000  Level FlightAware ADS-B
Sat 09:30:28 AM 64.9780 12.7550 307° West 444 511 36,000  Level FlightAware ADS-B
Sat 09:30:58 AM 65.0150 12.6350 306° West 443 510 36,000  Level FlightAware ADS-B
Sat 09:31:38 AM 65.0630 12.4820 307° West 443 510 36,000  Level FlightAware ADS-B
Sat 09:32:06 AM 65.0960 12.3720 305° West 444 511 36,000  Level FlightAware ADS-B
Sat 09:32:40 AM 65.1380 12.2380 307° West 445 512 36,000  Level FlightAware ADS-B
Sat 09:33:16 AM 65.1810 12.0960 306° West 446 513 36,000  Level FlightAware ADS-B
Sat 09:33:54 AM 65.2270 11.9450 306° West 445 512 36,000  Level FlightAware ADS-B
Sat 09:34:26 AM 65.2650 11.8170 305° West 445 512 36,000  Level FlightAware ADS-B
Sat 09:35:02 AM 65.3080 11.6730 306° West 448 516 36,000  Level FlightAware ADS-B
Sat 09:35:36 AM 65.3490 11.5360 306° West 450 518 36,000  Level FlightAware ADS-B
Sat 09:36:12 AM 65.3920 11.3870 305° West 450 518 36,000  Level FlightAware ADS-B
Sat 09:36:46 AM 65.4330 11.2480 305° West 449 517 36,000  Level FlightAware ADS-B
Sat 09:37:22 AM 65.4750 11.1040 305° West 449 517 36,000  Level FlightAware ADS-B
Sat 09:37:56 AM 65.5160 10.9630 305° West 449 517 36,000  Level FlightAware ADS-B
Sat 09:38:32 AM 65.5580 10.8160 305° West 448 516 36,000  Level FlightAware ADS-B
Sat 09:39:08 AM 65.6000 10.6680 305° West 449 517 36,000  Level FlightAware ADS-B
Sat 09:39:40 AM 65.6380 10.5370 305° West 448 516 36,000  Level FlightAware ADS-B
Sat 09:40:14 AM 65.6770 10.3980 304° West 449 517 36,000  Level FlightAware ADS-B
Sat 09:40:52 AM 65.7210 10.2420 304° West 448 516 36,000  Level FlightAware ADS-B
Sat 09:41:28 AM 65.7640 10.0870 304° West 449 517 36,000  Level FlightAware ADS-B
Sat 09:42:00 AM 65.7990 9.9590 304° West 449 517 36,000  Level FlightAware ADS-B
Sat 09:42:32 AM 65.8370 9.8190 304° West 449 517 36,000  Level FlightAware ADS-B
Sat 09:43:22 AM 65.8880 9.6320 304° West 449 517 36,000  Level FlightAware ADS-B
Sat 09:43:58 AM 65.9220 9.5010 303° West 449 517 36,000  Level FlightAware ADS-B
Sat 09:44:34 AM 65.9570 9.3700 303° West 449 517 36,000  Level FlightAware ADS-B
Sat 09:45:11 AM 65.9930 9.2360 303° West 449 517 36,000  Level FlightAware ADS-B
Sat 09:45:47 AM 66.0270 9.1040 302° West 449 517 36,000  Level FlightAware ADS-B
Sat 09:46:35 AM 66.0730 8.9290 303° West 449 517 36,000  Level FlightAware ADS-B
Sat 09:47:11 AM 66.1080 8.7980 303° West 449 517 36,000  Level FlightAware ADS-B
Sat 09:47:47 AM 66.1430 8.6660 303° West 449 517 36,000  Level FlightAware ADS-B
Sat 09:48:23 AM 66.1770 8.5340 303° West 449 517 36,000  Level FlightAware ADS-B
Sat 09:48:59 AM 66.2120 8.4020 303° West 449 517 36,000  Level FlightAware ADS-B
Sat 09:49:35 AM 66.2460 8.2700 303° West 449 517 36,000  Level FlightAware ADS-B
Sat 09:50:11 AM 66.2810 8.1370 303° West 449 517 36,000  Level FlightAware ADS-B
Sat 09:50:47 AM 66.3160 8.0040 303° West 449 517 36,000  Level FlightAware ADS-B
Sat 09:51:24 AM 66.3510 7.8680 303° West 449 517 36,000  Level FlightAware ADS-B
Sat 09:52:12 AM 66.3970 7.6910 303° West 449 517 36,000  Level FlightAware ADS-B
Sat 09:52:48 AM 66.4320 7.5570 303° West 449 517 36,000  Level FlightAware ADS-B
Sat 09:55:00 AM 66.4724 6.9412 280° West  Level Estimated
Sat 09:56:00 AM 66.4899 6.6606 279° West  Level Estimated
Sat 09:57:00 AM 66.5069 6.3797 279° West  Level Estimated
Sat 09:58:00 AM 66.5235 6.0984 279° West  Level Estimated
Sat 09:59:00 AM 66.5395 5.8167 278° West  Level Estimated
Sat 10:00:00 AM 66.5550 5.5346 278° West  Level Estimated
Sat 10:01:00 AM 66.5700 5.2522 278° West  Level Estimated
Sat 10:02:00 AM 66.5845 4.9695 277° West  Level Estimated
Sat 10:03:00 AM 66.5985 4.6865 277° West  Level Estimated
Sat 10:04:00 AM 66.6120 4.4031 277° West  Level Estimated
Sat 10:05:00 AM 66.6250 4.1194 277° West  Level Estimated
Sat 10:06:00 AM 66.6374 3.8354 276° West  Level Estimated
Sat 10:07:00 AM 66.6494 3.5512 276° West  Level Estimated
Sat 10:08:00 AM 66.6608 3.2667 276° West  Level Estimated
Sat 10:09:00 AM 66.6718 2.9819 276° West  Level Estimated
Sat 10:10:00 AM 66.6822 2.6969 275° West  Level Estimated
Sat 10:11:00 AM 66.6920 2.4116 275° West  Level Estimated
Sat 10:12:00 AM 66.7014 2.1262 275° West  Level Estimated
Sat 10:13:00 AM 66.7103 1.8405 275° West  Level Estimated
Sat 10:14:00 AM 66.7186 1.5546 274° West  Level Estimated
Sat 10:15:00 AM 66.7264 1.2685 274° West  Level Estimated
Sat 10:16:00 AM 66.7337 0.9823 274° West  Level Estimated
Sat 10:17:00 AM 66.7405 0.6959 274° West  Level Estimated
Sat 10:18:00 AM 66.7468 0.4093 273° West  Level Estimated
Sat 10:19:00 AM 66.7525 0.1226 273° West  Level Estimated
Sat 10:20:00 AM 66.7577 -0.1642 273° West  Level Estimated
Sat 10:21:00 AM 66.7624 -0.4512 273° West  Level Estimated
Sat 10:22:00 AM 66.7666 -0.7382 272° West  Level Estimated
Sat 10:23:00 AM 66.7703 -1.0254 272° West  Level Estimated
Sat 10:24:00 AM 66.7734 -1.3126 272° West  Level Estimated
Sat 10:25:00 AM 66.7760 -1.5999 271° West  Level Estimated
Sat 10:26:00 AM 66.7781 -1.8872 271° West  Level Estimated
Sat 10:27:00 AM 66.7797 -2.1746 271° West  Level Estimated
Sat 10:28:00 AM 66.7807 -2.4620 271° West  Level Estimated
Sat 10:29:00 AM 66.7813 -2.7495 270° West  Level Estimated
Sat 10:30:00 AM 66.7813 -3.0369 270° West  Level Estimated
Sat 10:31:00 AM 66.7808 -3.3244 270° West  Level Estimated
Sat 10:32:00 AM 66.7797 -3.6118 270° West  Level Estimated
Sat 10:33:00 AM 66.7782 -3.8992 269° West  Level Estimated
Sat 10:34:00 AM 66.7761 -4.1865 269° West  Level Estimated
Sat 10:35:00 AM 66.7735 -4.4738 269° West  Level Estimated
Sat 10:36:00 AM 66.7703 -4.7610 269° West  Level Estimated
Sat 10:37:00 AM 66.7667 -5.0482 268° West  Level Estimated
Sat 10:38:00 AM 66.7625 -5.3352 268° West  Level Estimated
Sat 10:39:00 AM 66.7578 -5.6222 268° West  Level Estimated
Sat 10:40:00 AM 66.7526 -5.9090 267° West  Level Estimated
Sat 10:41:00 AM 66.7469 -6.1957 267° West  Level Estimated
Sat 10:42:00 AM 66.7406 -6.4823 267° West  Level Estimated
Sat 10:43:00 AM 66.7338 -6.7687 267° West  Level Estimated
Sat 10:44:00 AM 66.7265 -7.0549 266° West  Level Estimated
Sat 10:45:00 AM 66.7187 -7.3410 266° West  Level Estimated
Sat 10:46:00 AM 66.7104 -7.6269 266° West  Level Estimated
Sat 10:47:00 AM 66.7015 -7.9126 266° West  Level Estimated
Sat 10:48:00 AM 66.6922 -8.1981 265° West  Level Estimated
Sat 10:49:00 AM 66.6823 -8.4833 265° West  Level Estimated
Sat 10:50:00 AM 66.6719 -8.7683 265° West  Level Estimated
Sat 10:51:00 AM 66.6610 -9.0531 265° West  Level Estimated
Sat 10:52:00 AM 66.6496 -9.3377 264° West  Level Estimated
Sat 10:53:00 AM 66.6376 -9.6219 264° West  Level Estimated
Sat 10:54:00 AM 66.6252 -9.9059 264° West  Level Estimated
Sat 10:55:00 AM 66.6122 -10.1896 264° West  Level Estimated
Sat 10:56:00 AM 66.5987 -10.4729 263° West  Level Estimated
Sat 10:57:00 AM 66.5847 -10.7560 263° West  Level Estimated
Sat 10:58:00 AM 66.5702 -11.0387 263° West  Level Estimated
Sat 10:59:00 AM 66.5552 -11.3211 263° West  Level Estimated
Sat 11:00:00 AM 66.5397 -11.6032 262° West  Level Estimated
Sat 11:01:00 AM 66.5237 -11.8849 262° West  Level Estimated
Sat 11:02:00 AM 66.5071 -12.1662 262° West  Level Estimated
Sat 11:03:00 AM 66.4901 -12.4472 261° West  Level Estimated
Sat 11:04:00 AM 66.4726 -12.7277 261° West  Level Estimated
Sat 11:05:00 AM 66.4546 -13.0079 261° West  Level Estimated
Sat 11:06:00 AM 66.4360 -13.2876 261° West  Level Estimated
Sat 11:07:00 AM 66.4170 -13.5670 260° West  Level Estimated
Sat 11:08:00 AM 66.3974 -13.8459 260° West  Level Estimated
Sat 11:09:00 AM 66.3774 -14.1243 260° West  Level Estimated
Sat 11:10:00 AM 66.3569 -14.4023 260° West  Level Estimated
Sat 11:11:00 AM 66.3359 -14.6799 259° West  Level Estimated
Sat 11:12:00 AM 66.3143 -14.9570 259° West  Level Estimated
Sat 11:13:00 AM 66.2923 -15.2336 259° West  Level Estimated
Sat 11:14:00 AM 66.2698 -15.5097 259° West  Level Estimated
Sat 11:15:00 AM 66.2468 -15.7853 258° West  Level Estimated
Sat 11:16:00 AM 66.2234 -16.0604 258° West  Level Estimated
Sat 11:17:00 AM 66.1994 -16.3350 258° West  Level Estimated
Sat 11:18:00 AM 66.1749 -16.6090 258° West  Level Estimated
Sat 11:19:00 AM 66.1500 -16.8826 257° West  Level Estimated
Sat 11:20:00 AM 66.1246 -17.1556 257° West  Level Estimated
Sat 11:21:00 AM 66.0987 -17.4280 257° West  Level Estimated
Sat 11:22:00 AM 66.0723 -17.6999 257° West  Level Estimated
Sat 11:23:00 AM 66.0455 -17.9712 256° West  Level Estimated
Sat 11:24:00 AM 66.0182 -18.2419 256° West  Level Estimated
Sat 11:25:00 AM 65.9904 -18.5120 256° West  Level Estimated
Sat 11:26:00 AM 65.9621 -18.7816 256° West  Level Estimated
Sat 11:27:00 AM 65.9334 -19.0505 255° West  Level Estimated
Sat 11:28:00 AM 65.9042 -19.3189 255° West  Level Estimated
Sat 11:29:00 AM 65.8745 -19.5866 255° West  Level Estimated
Sat 11:30:00 AM 65.8443 -19.8537 255° West  Level Estimated
Sat 11:31:00 AM 65.8137 -20.1202 254° West  Level Estimated
Sat 11:32:00 AM 65.7827 -20.3860 254° West  Level Estimated
Sat 11:33:00 AM 65.7511 -20.6512 254° West  Level Estimated
Sat 11:34:00 AM 65.7191 -20.9157 254° West  Level Estimated
Sat 11:35:00 AM 65.6867 -21.1796 253° West  Level Estimated
Sat 11:36:00 AM 65.6538 -21.4428 253° West  Level Estimated
Sat 11:37:00 AM 65.6204 -21.7054 253° West  Level Estimated
Sat 11:38:00 AM 65.5866 -21.9672 253° West  Level Estimated
Sat 11:39:00 AM 65.5524 -22.2284 253° West  Level Estimated
Sat 11:40:00 AM 65.5177 -22.4889 252° West  Level Estimated
Sat 11:41:00 AM 65.4825 -22.7487 252° West  Level Estimated
Sat 11:42:00 AM 65.4469 -23.0078 252° West  Level Estimated
Sat 11:43:00 AM 65.4109 -23.2662 252° West  Level Estimated
Sat 11:44:00 AM 65.3744 -23.5238 251° West  Level Estimated
Sat 11:45:00 AM 65.3375 -23.7808 251° West  Level Estimated
Sat 11:46:00 AM 65.3002 -24.0370 251° West  Level Estimated
Sat 11:47:00 AM 65.2624 -24.2925 251° West  Level Estimated
Sat 11:48:00 AM 65.2242 -24.5473 250° West  Level Estimated
Sat 11:49:00 AM 65.1856 -24.8013 250° West  Level Estimated
Sat 11:50:00 AM 65.1465 -25.0546 250° West  Level Estimated
Sat 11:51:00 AM 65.1070 -25.3071 250° West  Level Estimated
Sat 11:52:00 AM 65.0671 -25.5589 249° West  Level Estimated
Sat 11:53:00 AM 65.0267 -25.8099 249° West  Level Estimated
Sat 11:54:00 AM 64.9860 -26.0602 249° West  Level Estimated
Sat 11:55:00 AM 64.9448 -26.3097 249° West  Level Estimated
Sat 11:56:00 AM 64.9032 -26.5584 249° West  Level Estimated
Sat 11:57:00 AM 64.8612 -26.8063 248° West  Level Estimated
Sat 11:58:00 AM 64.8188 -27.0535 248° West  Level Estimated
Sat 11:59:00 AM 64.7759 -27.2999 248° West  Level Estimated
Sat 12:00:00 PM 64.7327 -27.5455 248° West  Level Estimated
Sat 12:01:00 PM 64.6891 -27.7903 247° West  Level Estimated
Sat 12:02:00 PM 64.6450 -28.0343 247° West  Level Estimated
Sat 12:03:00 PM 64.6006 -28.2776 247° West  Level Estimated
Sat 12:04:00 PM 64.5558 -28.5200 247° West  Level Estimated
Sat 12:05:00 PM 64.5105 -28.7617 247° West  Level Estimated
Sat 12:06:00 PM 64.4649 -29.0025 246° West  Level Estimated
Sat 12:07:00 PM 64.4163 -29.2557 246° West  Level Estimated
Sat 12:08:00 PM 64.3673 -29.5081 246° West  Level Estimated
Sat 12:09:00 PM 64.3179 -29.7595 246° West  Level Estimated
Sat 12:10:00 PM 64.2680 -30.0101 245° Southwest  Level Estimated
Sat 12:11:00 PM 64.2177 -30.2597 245° Southwest  Level Estimated
Sat 12:12:00 PM 64.1670 -30.5084 245° Southwest  Level Estimated
Sat 12:13:00 PM 64.1158 -30.7562 245° Southwest  Level Estimated
Sat 12:14:00 PM 64.0643 -31.0031 245° Southwest  Level Estimated
Sat 12:15:00 PM 64.0123 -31.2491 244° Southwest  Level Estimated
Sat 12:16:00 PM 63.9599 -31.4942 244° Southwest  Level Estimated
Sat 12:17:00 PM 63.9071 -31.7383 244° Southwest  Level Estimated
Sat 12:18:00 PM 63.8539 -31.9816 244° Southwest  Level Estimated
Sat 12:19:00 PM 63.8003 -32.2239 243° Southwest  Level Estimated
Sat 12:20:00 PM 63.7462 -32.4652 243° Southwest  Level Estimated
Sat 12:21:00 PM 63.6918 -32.7057 243° Southwest  Level Estimated
Sat 12:22:00 PM 63.6370 -32.9452 243° Southwest  Level Estimated
Sat 12:23:00 PM 63.5817 -33.1838 243° Southwest  Level Estimated
Sat 12:24:00 PM 63.5261 -33.4215 242° Southwest  Level Estimated
Sat 12:25:00 PM 63.4701 -33.6583 242° Southwest  Level Estimated
Sat 12:26:00 PM 63.4137 -33.8941 242° Southwest  Level Estimated
Sat 12:27:00 PM 63.3569 -34.1290 242° Southwest  Level Estimated
Sat 12:28:00 PM 63.2997 -34.3629 242° Southwest  Level Estimated
Sat 12:29:00 PM 63.2422 -34.5960 241° Southwest  Level Estimated
Sat 12:30:00 PM 63.1843 -34.8281 241° Southwest  Level Estimated
Sat 12:31:00 PM 63.1259 -35.0592 241° Southwest  Level Estimated
Sat 12:32:00 PM 63.0673 -35.2895 241° Southwest  Level Estimated
Sat 12:33:00 PM 63.0082 -35.5188 241° Southwest  Level Estimated
Sat 12:34:00 PM 62.9488 -35.7472 240° Southwest  Level Estimated
Sat 12:35:00 PM 62.8890 -35.9746 240° Southwest  Level Estimated
Sat 12:36:00 PM 62.8288 -36.2011 240° Southwest  Level Estimated
Sat 12:37:00 PM 62.7683 -36.4268 240° Southwest  Level Estimated
Sat 12:38:00 PM 62.7074 -36.6514 239° Southwest  Level Estimated
Sat 12:39:00 PM 62.6462 -36.8752 239° Southwest  Level Estimated
Sat 12:40:00 PM 62.5846 -37.0980 239° Southwest  Level Estimated
Sat 12:41:00 PM 62.5226 -37.3199 239° Southwest  Level Estimated
Sat 12:42:00 PM 62.4603 -37.5409 239° Southwest  Level Estimated
Sat 12:43:00 PM 62.3977 -37.7609 239° Southwest  Level Estimated
Sat 12:44:00 PM 62.3347 -37.9800 238° Southwest  Level Estimated
Sat 12:45:00 PM 62.2714 -38.1982 238° Southwest  Level Estimated
Sat 12:46:00 PM 62.2077 -38.4155 238° Southwest  Level Estimated
Sat 12:47:00 PM 62.1437 -38.6319 238° Southwest  Level Estimated
Sat 12:48:00 PM 62.0793 -38.8474 238° Southwest  Level Estimated
Sat 12:49:00 PM 62.0147 -39.0619 237° Southwest  Level Estimated
Sat 12:50:00 PM 61.9496 -39.2756 237° Southwest  Level Estimated
Sat 12:51:00 PM 61.8843 -39.4883 237° Southwest  Level Estimated
Sat 12:52:00 PM 61.8186 -39.7001 237° Southwest  Level Estimated
Sat 12:53:00 PM 61.7526 -39.9110 237° Southwest  Level Estimated
Sat 12:54:00 PM 61.6863 -40.1210 236° Southwest  Level Estimated
Sat 12:55:00 PM 61.6197 -40.3301 236° Southwest  Level Estimated
Sat 12:56:00 PM 61.5527 -40.5383 236° Southwest  Level Estimated
Sat 12:57:00 PM 61.4855 -40.7456 236° Southwest  Level Estimated
Sat 12:58:00 PM 61.4179 -40.9520 236° Southwest  Level Estimated
Sat 12:59:00 PM 61.3500 -41.1575 235° Southwest  Level Estimated
Sat 01:00:00 PM 61.2818 -41.3621 235° Southwest  Level Estimated
Sat 01:00:56 PM 62.3990 -48.8990 235° Southwest 445 512 36,000  Level FlightAware ADS-B
Sat 01:01:00 PM 61.2133 -41.5659 235° Southwest  Level Estimated
Sat 01:01:31 PM 62.3550 -49.0240 233° Southwest 443 510 36,000  Level FlightAware ADS-B
Sat 01:02:09 PM 62.3080 -49.1560 233° Southwest 441 507 36,000  Level FlightAware ADS-B
Sat 01:02:48 PM 62.2660 -49.2710 232° Southwest 441 507 36,000  Level FlightAware ADS-B
Sat 01:03:25 PM 62.2140 -49.4170 233° Southwest 436 502 36,000  Level FlightAware ADS-B
Sat 01:03:58 PM 62.1730 -49.5280 232° Southwest 436 502 36,000  Level FlightAware ADS-B
Sat 01:04:49 PM 62.1150 -49.6880 232° Southwest 436 502 36,000  Level FlightAware ADS-B
Sat 01:05:25 PM 62.0770 -49.7920 232° Southwest 436 502 36,000  Level FlightAware ADS-B
Sat 01:06:01 PM 62.0390 -49.8960 232° Southwest 436 502 36,000  Level FlightAware ADS-B
Sat 01:06:30 PM 61.9860 -50.0430 233° Southwest 433 498 36,000  Level FlightAware ADS-B
Sat 01:07:17 PM 61.9330 -50.2070 236° Southwest 426 490 36,000  Level FlightAware ADS-B
Sat 01:08:03 PM 61.8870 -50.3490 236° Southwest 423 487 36,000  Level FlightAware ADS-B
Sat 01:08:55 PM 61.8300 -50.5230 235° Southwest 417 480 36,000  Level FlightAware ADS-B
Sat 01:09:32 PM 61.7960 -50.6280 236° Southwest 417 480 36,000  Level FlightAware ADS-B
Sat 01:10:08 PM 61.7620 -50.7310 235° Southwest 417 480 36,000  Level FlightAware ADS-B
Sat 01:10:44 PM 61.7280 -50.8330 235° Southwest 417 480 36,000  Level FlightAware ADS-B
Sat 01:11:20 PM 61.6940 -50.9350 235° Southwest 417 480 36,000  Level FlightAware ADS-B
Sat 01:11:56 PM 61.6600 -51.0370 235° Southwest 417 480 36,000  Level FlightAware ADS-B
Sat 01:12:30 PM 61.6280 -51.1330 235° Southwest 417 480 36,000  Level FlightAware ADS-B
Sat 01:13:01 PM 61.5510 -51.3610 235° Southwest 423 487 36,000  Level FlightAware ADS-B
Sat 01:13:46 PM 61.5010 -51.5080 235° Southwest 422 486 36,000  Level FlightAware ADS-B
Sat 01:14:21 PM 61.4600 -51.6270 234° Southwest 423 487 36,000  Level FlightAware ADS-B
Sat 01:14:58 PM 61.4190 -51.7480 235° Southwest 425 489 36,000  Level FlightAware ADS-B
Sat 01:15:29 PM 61.3840 -51.8470 234° Southwest 426 490 36,000  Level FlightAware ADS-B
Sat 01:16:09 PM 61.3450 -51.9600 234° Southwest 426 490 36,000  Level FlightAware ADS-B
Sat 01:16:45 PM 61.3090 -52.0620 234° Southwest 426 490 36,000  Level FlightAware ADS-B
Sat 01:17:21 PM 61.2740 -52.1640 235° Southwest 426 490 36,000  Level FlightAware ADS-B
Sat 01:17:58 PM 61.2370 -52.2680 234° Southwest 426 490 36,000  Level FlightAware ADS-B
Sat 01:18:35 PM 61.2010 -52.3720 234° Southwest 426 490 36,000  Level FlightAware ADS-B
Sat 01:19:11 PM 61.1650 -52.4730 234° Southwest 426 490 36,000  Level FlightAware ADS-B
Sat 01:19:48 PM 61.1290 -52.5770 234° Southwest 426 490 36,000  Level FlightAware ADS-B
Sat 01:20:25 PM 61.0920 -52.6810 234° Southwest 426 490 36,000  Level FlightAware ADS-B
Sat 01:21:01 PM 61.0570 -52.7820 234° Southwest 426 490 36,000  Level FlightAware ADS-B
Sat 01:21:38 PM 61.0200 -52.8850 233° Southwest 426 490 36,000  Level FlightAware ADS-B
Sat 01:22:14 PM 60.9850 -52.9860 234° Southwest 426 490 36,000  Level FlightAware ADS-B
Sat 01:22:49 PM 60.9500 -53.0840 234° Southwest 426 490 36,000  Level FlightAware ADS-B
Sat 01:23:25 PM 60.9150 -53.1840 234° Southwest 426 490 36,000  Level FlightAware ADS-B
Sat 01:24:02 PM 60.8790 -53.2870 234° Southwest 426 490 36,000  Level FlightAware ADS-B
Sat 01:24:38 PM 60.8430 -53.3870 234° Southwest 426 490 36,000  Level FlightAware ADS-B
Sat 01:25:15 PM 60.8070 -53.4900 234° Southwest 426 490 36,000  Level FlightAware ADS-B
Sat 01:27:00 PM 60.6787 -53.8282 232° Southwest  Level FlightAware Approximate
Sat 01:28:00 PM 60.6050 -54.0203 232° Southwest  Level FlightAware Approximate
Sat 01:29:00 PM 60.5310 -54.2115 232° Southwest  Level FlightAware Approximate
Sat 01:30:00 PM 60.4568 -54.4018 232° Southwest  Level FlightAware Approximate
Sat 01:31:00 PM 60.3823 -54.5912 232° Southwest  Level FlightAware Approximate
Sat 01:32:00 PM 60.3075 -54.7798 231° Southwest  Level FlightAware Approximate
Sat 01:33:00 PM 60.2324 -54.9675 231° Southwest  Level FlightAware Approximate
Sat 01:34:00 PM 60.1571 -55.1543 231° Southwest  Level FlightAware Approximate
Sat 01:35:00 PM 60.0815 -55.3403 231° Southwest  Level FlightAware Approximate
Sat 01:36:00 PM 60.0057 -55.5255 231° Southwest  Level FlightAware Approximate
Sat 01:37:00 PM 59.9296 -55.7098 231° Southwest  Level FlightAware Approximate
Sat 01:38:00 PM 59.8532 -55.8932 230° Southwest  Level FlightAware Approximate
Sat 01:39:00 PM 59.7766 -56.0758 230° Southwest  Level FlightAware Approximate
Sat 01:40:00 PM 59.6998 -56.2576 230° Southwest  Level FlightAware Approximate
Sat 01:41:00 PM 59.6227 -56.4385 230° Southwest  Level FlightAware Approximate
Sat 01:42:00 PM 59.5453 -56.6186 230° Southwest  Level FlightAware Approximate
Sat 01:42:18 PM 59.3833 -56.9667 229° Southwest 460 529 36,000  Level Gander Center
Sat 01:43:00 PM 59.4678 -56.7979 230° Southwest  Level FlightAware Approximate
Sat 01:43:18 PM 59.2833 -57.1333 220° Southwest 450 518 36,000  Level Gander Center
Sat 01:44:00 PM 59.3899 -56.9764 229° Southwest  Level FlightAware Approximate
Sat 01:44:18 PM 59.2000 -57.2833 223° Southwest 450 518 36,000  Level Gander Center
Sat 01:45:00 PM 59.3118 -57.1540 229° Southwest  Level FlightAware Approximate
Sat 01:45:18 PM 59.0833 -57.4000 207° Southwest 460 529 36,000  Level Gander Center
Sat 01:46:00 PM 59.2335 -57.3308 229° Southwest  Level FlightAware Approximate
Sat 01:46:18 PM 58.9667 -57.5333 211° Southwest 460 529 36,000  Level Gander Center
Sat 01:47:00 PM 59.1549 -57.5069 229° Southwest  Level FlightAware Approximate
Sat 01:47:18 PM 58.8500 -57.6667 211° Southwest 460 529 36,000  Level Gander Center
Sat 01:48:18 PM 58.7500 -57.7833 211° Southwest 460 529 36,000  Level Gander Center
Sat 01:49:18 PM 58.6500 -57.9167 215° Southwest 460 529 36,000  Level Gander Center
Sat 01:50:18 PM 58.5333 -58.0500 211° Southwest 460 529 36,000  Level Gander Center
Sat 01:51:18 PM 58.4333 -58.2000 218° Southwest 460 529 36,000  Level Gander Center
Sat 01:52:18 PM 58.3167 -58.3000 204° Southwest 460 529 36,000  Level Gander Center
Sat 01:53:18 PM 58.2000 -58.4333 211° Southwest 460 529 36,000  Level Gander Center
Sat 01:54:18 PM 58.1000 -58.5667 215° Southwest 460 529 36,000  Level Gander Center
Sat 01:55:18 PM 58.0000 -58.7000 215° Southwest 460 529 36,000  Level Gander Center
Sat 01:56:18 PM 57.8833 -58.8000 205° Southwest 460 529 36,000  Level Gander Center
Sat 01:57:18 PM 57.7667 -58.9333 211° Southwest 460 529 36,000  Level Gander Center
Sat 01:58:18 PM 57.6500 -59.0667 211° Southwest 460 529 36,000  Level Gander Center
Sat 01:59:18 PM 57.5500 -59.1667 208° Southwest 460 529 36,000  Level Gander Center
Sat 02:00:18 PM 57.4333 -59.3000 212° Southwest 460 529 36,000  Level Gander Center
Sat 02:01:18 PM 57.3167 -59.4333 212° Southwest 460 529 36,000  Level Gander Center
Sat 02:02:18 PM 57.2000 -59.5333 205° Southwest 460 529 36,000  Level Gander Center
Sat 02:03:18 PM 57.1167 -59.6500 217° Southwest 460 529 36,000  Level Gander Center
Sat 02:04:18 PM 56.9833 -59.8167 214° Southwest 460 529 36,000  Level Gander Center
Sat 02:05:18 PM 56.8667 -59.9167 205° Southwest 470 541 36,000  Level Gander Center
Sat 02:06:18 PM 56.7667 -60.0333 213° Southwest 470 541 36,000  Level Gander Center
Sat 02:07:18 PM 56.6333 -60.1667 209° Southwest 470 541 36,000  Level Gander Center
Sat 02:08:18 PM 56.5333 -60.2833 213° Southwest 470 541 36,000  Level Gander Center
Sat 02:09:18 PM 56.4167 -60.3833 205° Southwest 470 541 36,000  Level Gander Center
Sat 02:10:19 PM 56.3000 -60.4833 205° Southwest 470 541 36,000  Level Moncton Center
Sat 02:11:19 PM 56.1833 -60.6167 212° Southwest 470 541 36,000  Level Moncton Center
Sat 02:12:19 PM 56.0667 -60.7167 206° Southwest 470 541 36,000  Level Moncton Center
Sat 02:13:19 PM 55.9500 -60.8500 213° Southwest 470 541 36,000  Level Moncton Center
Sat 02:14:19 PM 55.8500 -60.9500 209° Southwest 470 541 36,000  Level Moncton Center
Sat 02:15:19 PM 55.7167 -61.0833 209° Southwest 470 541 36,000  Level Moncton Center
Sat 02:16:19 PM 55.6167 -61.1833 209° Southwest 470 541 36,000  Level Moncton Center
Sat 02:17:19 PM 55.5000 -61.3000 210° Southwest 470 541 36,000  Level Moncton Center
Sat 02:18:19 PM 55.3667 -61.4000 203° Southwest 480 552 36,000  Level Moncton Center
Sat 02:19:19 PM 55.2667 -61.5333 217° Southwest 480 552 36,000  Level Moncton Center
Sat 02:20:19 PM 55.1500 -61.6167 202° Southwest 480 552 36,000  Level Moncton Center
Sat 02:21:19 PM 55.0333 -61.7500 213° Southwest 480 552 36,000  Level Moncton Center
Sat 02:22:19 PM 54.9167 -61.8333 202° Southwest 480 552 36,000  Level Moncton Center
Sat 02:23:19 PM 54.8000 -61.9667 213° Southwest 480 552 36,000  Level Moncton Center
Sat 02:24:19 PM 54.6667 -62.0833 207° Southwest 480 552 36,000  Level Moncton Center
Sat 02:25:19 PM 54.5500 -62.1833 206° Southwest 480 552 36,000  Level Moncton Center
Sat 02:26:19 PM 54.4333 -62.3000 210° Southwest 480 552 36,000  Level Moncton Center
Sat 02:27:19 PM 54.3333 -62.4000 210° Southwest 480 552 36,000  Level Moncton Center
Sat 02:28:19 PM 54.2167 -62.5167 210° Southwest 490 564 36,000  Level Moncton Center
Sat 02:29:19 PM 54.0833 -62.6000 200° South 480 552 36,000  Level Moncton Center
Sat 02:30:19 PM 53.9667 -62.7167 210° Southwest 490 564 36,000  Level Moncton Center
Sat 02:31:19 PM 53.8333 -62.8333 207° Southwest 490 564 36,000  Level Moncton Center
Sat 02:32:19 PM 53.7167 -62.9333 207° Southwest 490 564 36,000  Level Moncton Center
Sat 02:33:19 PM 53.6000 -63.0500 211° Southwest 490 564 36,000  Level Moncton Center
Sat 02:34:19 PM 53.4833 -63.1333 203° Southwest 490 564 36,000  Level Moncton Center
Sat 02:35:19 PM 53.3500 -63.2500 208° Southwest 490 564 36,000  Level Moncton Center
Sat 02:36:19 PM 53.2333 -63.3667 211° Southwest 500 575 36,000  Level Moncton Center
Sat 02:37:19 PM 53.1000 -63.4833 208° Southwest 500 575 36,000  Level Moncton Center
Sat 02:38:19 PM 52.9833 -63.5667 203° Southwest 490 564 36,000  Level Moncton Center
Sat 02:39:19 PM 52.8667 -63.6833 211° Southwest 490 564 36,000  Level Moncton Center
Sat 02:40:19 PM 52.7333 -63.7667 201° Southwest 490 564 36,000  Level Moncton Center
Sat 02:41:19 PM 52.6167 -63.8667 208° Southwest 490 564 36,000  Level Moncton Center
Sat 02:42:19 PM 52.4833 -63.9833 208° Southwest 490 564 36,000  Level Moncton Center
Sat 02:43:19 PM 52.3667 -64.0667 204° Southwest 490 564 36,000  Level Moncton Center
Sat 02:44:19 PM 52.2500 -64.1833 211° Southwest 490 564 36,000  Level Moncton Center
Sat 02:45:19 PM 52.1167 -64.2833 205° Southwest 490 564 36,000  Level Moncton Center
Sat 02:46:19 PM 52.0000 -64.3667 204° Southwest 490 564 36,000  Level Moncton Center
Sat 02:47:19 PM 51.8667 -64.4833 208° Southwest 500 575 36,000  Level Moncton Center
Sat 02:48:19 PM 51.7500 -64.5833 208° Southwest 500 575 36,000  Level Moncton Center
Sat 02:49:19 PM 51.6167 -64.6667 201° Southwest 500 575 36,000  Level Moncton Center
Sat 02:50:19 PM 51.5000 -64.7667 208° Southwest 500 575 36,000  Level Moncton Center
Sat 02:51:19 PM 51.3833 -64.8500 204° Southwest 500 575 36,000  Level Moncton Center
Sat 02:52:19 PM 51.2500 -64.9667 209° Southwest 500 575 36,000  Level Moncton Center
Sat 02:53:19 PM 51.1333 -65.0667 208° Southwest 500 575 36,000  Level Moncton Center
Sat 02:54:19 PM 51.0000 -65.1667 205° Southwest 500 575 36,000  Level Moncton Center
Sat 02:55:19 PM 50.8833 -65.2500 204° Southwest 500 575 36,000  Level Moncton Center
Sat 02:56:19 PM 50.7500 -65.3500 205° Southwest 500 575 36,000  Level Moncton Center
Sat 02:57:19 PM 50.6167 -65.4333 202° Southwest 500 575 36,000  Level Moncton Center
Sat 02:58:19 PM 50.5000 -65.5333 209° Southwest 500 575 36,000  Level Moncton Center
Sat 02:59:19 PM 50.3667 -65.6333 206° Southwest 500 575 36,000  Level Moncton Center
Sat 03:00:19 PM 50.2500 -65.7000 200° South 500 575 36,000  Level Moncton Center
Sat 03:01:19 PM 50.1167 -65.8000 206° Southwest 500 575 36,000  Level Moncton Center
Sat 03:02:19 PM 50.0000 -65.9000 209° Southwest 500 575 36,000  Level Moncton Center
Sat 03:03:19 PM 49.8667 -66.0000 206° Southwest 500 575 36,000  Level Moncton Center
Sat 03:04:19 PM 49.7500 -66.0833 205° Southwest 500 575 36,000  Level Moncton Center
Sat 03:05:19 PM 49.6333 -66.1833 209° Southwest 490 564 36,000  Level Moncton Center
Sat 03:06:19 PM 49.5000 -66.2500 198° South 490 564 36,000  Level Moncton Center
Sat 03:07:19 PM 49.3667 -66.3500 206° Southwest 490 564 36,000  Level Moncton Center
Sat 03:08:19 PM 49.2333 -66.4500 206° Southwest 500 575 36,000  Level Moncton Center
Sat 03:09:19 PM 49.1167 -66.5167 201° Southwest 490 564 36,000  Level Moncton Center
Sat 03:10:19 PM 49.0000 -66.6167 209° Southwest 490 564 36,000  Level Moncton Center
Sat 03:11:19 PM 48.8667 -66.6833 198° South 490 564 36,000  Level Moncton Center
Sat 03:12:19 PM 48.7500 -66.7833 209° Southwest 490 564 36,000  Level Moncton Center
Sat 03:18:04 PM 48.0600 -67.2610 209° Southwest 480 552 36,000  Level FlightAware ADS-B
Sat 03:18:33 PM 48.0600 -67.2610 209° Southwest 479 551 36,000  Level FlightAware ADS-B
Sat 03:19:13 PM 47.9910 -67.3070 204° Southwest 479 551 36,000  Level FlightAware ADS-B
Sat 03:19:50 PM 47.9270 -67.3490 204° Southwest 479 551 36,000  Level FlightAware ADS-B
Sat 03:20:26 PM 47.8650 -67.3910 204° Southwest 479 551 36,000  Level FlightAware ADS-B
Sat 03:21:02 PM 47.8030 -67.4320 204° Southwest 479 551 36,000  Level FlightAware ADS-B
Sat 03:21:19 PM 48.0600 -67.2610 24° Northeast 36,000  Level FlightAware ADS-B
Sat 03:21:54 PM 47.5890 -67.5710 204° Southwest 472 543 36,000  Level FlightAware ADS-B
Sat 03:22:45 PM 47.4890 -67.6370 204° Southwest 469 540 36,000  Level FlightAware ADS-B
Sat 03:23:19 PM 47.4230 -67.6800 204° Southwest 469 540 36,000  Level FlightAware ADS-B
Sat 03:23:54 PM 47.3610 -67.7190 203° Southwest 468 539 36,000  Level FlightAware ADS-B
Sat 03:24:30 PM 47.3000 -67.7570 203° Southwest 468 539 36,000  Level FlightAware ADS-B
Sat 03:25:07 PM 47.3570 -67.7220 23° Northeast 466 536 36,000  Level FlightAware ADS-B
Sat 03:25:51 PM 47.3580 -67.7210 34° Northeast 466 536 36,000  Level FlightAware ADS-B
Sat 03:26:30 PM 47.0480 -67.9210 204° Southwest 470 541 36,000  Level FlightAware ADS-B
Sat 03:27:05 PM 46.9700 -67.9710 204° Southwest 470 541 36,000  Level FlightAware ADS-B
Sat 03:27:54 PM 46.8760 -68.0310 204° Southwest 467 537 36,000  Level FlightAware ADS-B
Sat 03:28:24 PM 46.8180 -68.0670 203° Southwest 465 535 36,000  Level FlightAware ADS-B
Sat 03:28:59 PM 46.7440 -68.1060 200° South 467 537 36,000  Level FlightAware ADS-B
Sat 03:29:39 PM 46.6610 -68.1400 196° South 465 535 36,000  Level FlightAware ADS-B
Sat 03:30:09 PM 46.6010 -68.1660 197° South 464 534 36,000  Level FlightAware ADS-B
Sat 03:30:44 PM 46.5290 -68.1970 197° South 463 533 36,000  Level FlightAware ADS-B
Sat 03:31:24 PM 46.4470 -68.2310 196° South 462 532 36,000  Level FlightAware ADS-B
Sat 03:32:04 PM 46.3620 -68.2660 196° South 463 533 36,000  Level FlightAware ADS-B
Sat 03:32:39 PM 46.2900 -68.2950 196° South 463 533 36,000  Level FlightAware ADS-B
Sat 03:33:14 PM 46.2190 -68.3250 196° South 462 532 36,000  Level FlightAware ADS-B
Sat 03:33:49 PM 46.1470 -68.3540 196° South 460 529 36,000  Level FlightAware ADS-B
Sat 03:34:24 PM 46.0760 -68.3830 196° South 460 529 36,000  Level FlightAware ADS-B
Sat 03:34:54 PM 46.0140 -68.4080 196° South 460 529 36,000  Level FlightAware ADS-B
Sat 03:35:34 PM 45.9340 -68.4400 196° South 459 528 36,000  Level FlightAware ADS-B
Sat 03:36:09 PM 45.8640 -68.4770 200° South 447 514 36,000  Level FlightAware ADS-B
Sat 03:36:39 PM 45.8140 -68.5240 213° Southwest 438 504 36,000  Level FlightAware ADS-B
Sat 03:37:24 PM 45.7380 -68.5940 213° Southwest 434 499 36,000  Level FlightAware ADS-B
Sat 03:37:59 PM 45.6790 -68.6480 213° Southwest 430 495 36,000  Level FlightAware ADS-B
Sat 03:38:34 PM 45.6220 -68.7010 213° Southwest 428 493 36,000  Level FlightAware ADS-B
Sat 03:39:09 PM 45.5630 -68.7550 213° Southwest 426 490 36,000  Level FlightAware ADS-B
Sat 03:39:44 PM 45.5050 -68.8080 213° Southwest 426 490 36,000  Level FlightAware ADS-B
Sat 03:40:19 PM 45.4480 -68.8610 213° Southwest 426 490 36,000  Level FlightAware ADS-B
Sat 03:40:59 PM 45.3820 -68.9210 213° Southwest 426 490 36,000  Level FlightAware ADS-B
Sat 03:41:34 PM 45.3230 -68.9740 212° Southwest 426 490 36,000  Level FlightAware ADS-B
Sat 03:42:14 PM 45.2570 -69.0340 213° Southwest 425 489 36,000  Level FlightAware ADS-B
Sat 03:42:44 PM 45.2080 -69.0790 213° Southwest 426 490 36,000  Level FlightAware ADS-B
Sat 03:43:19 PM 45.1500 -69.1310 212° Southwest 430 495 36,000  Level FlightAware ADS-B
Sat 03:43:59 PM 45.0820 -69.1930 213° Southwest 433 498 36,000  Level FlightAware ADS-B
Sat 03:44:29 PM 45.0330 -69.2360 212° Southwest 433 498 36,000  Level FlightAware ADS-B
Sat 03:45:09 PM 44.9660 -69.2960 212° Southwest 434 499 36,000  Level FlightAware ADS-B
Sat 03:45:39 PM 44.9150 -69.3420 213° Southwest 433 498 36,000  Level FlightAware ADS-B
Sat 03:46:14 PM 44.8550 -69.3960 213° Southwest 431 496 36,000  Level FlightAware ADS-B
Sat 03:46:54 PM 44.7880 -69.4550 212° Southwest 429 494 36,000  Level FlightAware ADS-B
Sat 03:47:32 PM 44.7240 -69.5120 212° Southwest 426 490 36,000  Level FlightAware ADS-B
Sat 03:48:11 PM 44.6620 -69.5660 212° Southwest 424 488 36,000  Level FlightAware ADS-B
Sat 03:48:43 PM 44.6070 -69.6150 212° Southwest 420 483 36,000  Level FlightAware ADS-B
Sat 03:49:19 PM 44.5490 -69.6660 212° Southwest 415 478 36,000  Level FlightAware ADS-B
Sat 03:49:56 PM 44.4900 -69.7180 212° Southwest 410 472 36,000  Level FlightAware ADS-B
Sat 03:50:26 PM 44.4410 -69.7610 212° Southwest 408 470 36,000  Level FlightAware ADS-B
Sat 03:51:04 PM 44.3790 -69.8150 212° Southwest 406 467 36,000  Level FlightAware ADS-B
Sat 03:51:38 PM 44.3250 -69.8620 212° Southwest 405 466 36,000  Level FlightAware ADS-B
Sat 03:52:14 PM 44.2670 -69.9120 212° Southwest 405 466 36,000  Level FlightAware ADS-B
Sat 03:52:50 PM 44.2110 -69.9610 212° Southwest 405 466 36,000  Level FlightAware ADS-B
Sat 03:53:24 PM 44.1570 -70.0070 211° Southwest 402 463 36,000  Level FlightAware ADS-B
Sat 03:53:59 PM 44.1030 -70.0550 213° Southwest 402 463 36,000  Level FlightAware ADS-B
Sat 03:54:37 PM 44.0430 -70.1060 211° Southwest 403 464 36,000  Level FlightAware ADS-B
Sat 03:55:09 PM 43.9930 -70.1500 212° Southwest 403 464 36,000  Level FlightAware ADS-B
Sat 03:55:41 PM 43.9410 -70.1940 211° Southwest 402 463 36,000  Level FlightAware ADS-B
Sat 03:56:21 PM 43.8770 -70.2480 211° Southwest 400 460 36,000  Level FlightAware ADS-B
Sat 03:56:52 PM 43.8300 -70.2890 212° Southwest 401 461 36,000  Level FlightAware ADS-B
Sat 03:57:29 PM 43.7700 -70.3400 212° Southwest 401 461 36,000  Level FlightAware ADS-B
Sat 03:58:02 PM 43.7180 -70.3840 211° Southwest 401 461 36,000  Level FlightAware ADS-B
Sat 03:58:42 PM 43.6540 -70.4380 211° Southwest 403 464 36,000  Level FlightAware ADS-B
Sat 03:59:14 PM 43.6030 -70.4820 212° Southwest 404 465 36,000  Level FlightAware ADS-B
Sat 03:59:50 PM 43.5460 -70.5300 211° Southwest 406 467 36,000  Level FlightAware ADS-B
Sat 04:00:22 PM 43.4950 -70.5730 211° Southwest 407 468 36,000  Level FlightAware ADS-B
Sat 04:00:58 PM 43.4370 -70.6210 211° Southwest 404 465 36,000  Level FlightAware ADS-B
Sat 04:01:32 PM 43.3830 -70.6670 212° Southwest 404 465 36,000  Level FlightAware ADS-B
Sat 04:02:12 PM 43.3200 -70.7200 211° Southwest 405 466 36,000  Level FlightAware ADS-B
Sat 04:02:44 PM 43.2680 -70.7630 211° Southwest 405 466 36,000  Level FlightAware ADS-B
Sat 04:03:20 PM 43.2100 -70.8110 211° Southwest 406 467 36,000  Level FlightAware ADS-B
Sat 04:03:56 PM 43.1530 -70.8590 212° Southwest 406 467 36,000  Level FlightAware ADS-B
Sat 04:04:30 PM 43.0980 -70.9050 211° Southwest 408 470 36,000  Level FlightAware ADS-B
Sat 04:05:06 PM 43.0410 -70.9520 211° Southwest 410 472 36,000  Level FlightAware ADS-B
Sat 04:05:38 PM 42.9870 -70.9960 211° Southwest 411 473 36,000  Level FlightAware ADS-B
Sat 04:06:14 PM 42.9300 -71.0430 211° Southwest 411 473 36,000  Level FlightAware ADS-B
Sat 04:06:52 PM 42.8700 -71.0990 214° Southwest 406 467 36,000  Level FlightAware ADS-B
Sat 04:07:24 PM 42.8200 -71.1450 214° Southwest 406 467 36,000  Level FlightAware ADS-B
Sat 04:08:00 PM 42.7650 -71.1960 214° Southwest 406 467 36,000  Level FlightAware ADS-B
Sat 04:08:36 PM 42.7070 -71.2490 214° Southwest 406 467 36,000  Level FlightAware ADS-B
Sat 04:09:08 PM 42.6590 -71.2940 215° Southwest 406 467 36,000  Level FlightAware ADS-B
Sat 04:09:46 PM 42.5990 -71.3480 214° Southwest 406 467 36,000  Level FlightAware ADS-B
Sat 04:10:18 PM 42.5490 -71.3940 214° Southwest 407 468 36,000  Level FlightAware ADS-B
Sat 04:10:54 PM 42.4930 -71.4450 214° Southwest 408 470 36,000  Level FlightAware ADS-B
Sat 04:11:30 PM 42.4370 -71.4960 214° Southwest 409 471 36,000  Level FlightAware ADS-B
Sat 04:12:05 PM 42.3830 -71.5450 214° Southwest 410 472 36,000  Level FlightAware ADS-B
Sat 04:12:37 PM 42.3320 -71.5910 214° Southwest 410 472 36,000  Level FlightAware ADS-B
Sat 04:13:14 PM 42.2750 -71.6420 214° Southwest 409 471 36,000  Level FlightAware ADS-B
Sat 04:13:51 PM 42.2160 -71.6950 214° Southwest 410 472 36,000  Level FlightAware ADS-B
Sat 04:14:25 PM 42.1620 -71.7440 214° Southwest 409 471 36,000  Level FlightAware ADS-B
Sat 04:14:59 PM 42.1090 -71.7910 213° Southwest 409 471 36,000  Level FlightAware ADS-B
Sat 04:15:33 PM 42.0530 -71.8410 214° Southwest 408 470 36,000  Level FlightAware ADS-B
Sat 04:16:07 PM 42.0020 -71.8860 213° Southwest 409 471 36,000  Level FlightAware ADS-B
Sat 04:16:42 PM 41.9500 -71.9330 214° Southwest 408 470 36,000  Level FlightAware ADS-B
Sat 04:17:28 PM 41.8790 -71.9960 213° Southwest 406 467 36,000  Level FlightAware ADS-B
Sat 04:18:00 PM 41.8260 -72.0430 213° Southwest 406 467 36,000  Level FlightAware ADS-B
Sat 04:18:35 PM 41.7700 -72.0920 213° Southwest 406 467 36,000  Level FlightAware ADS-B
Sat 04:19:13 PM 41.7130 -72.1430 214° Southwest 409 471 36,000  Level FlightAware ADS-B
Sat 04:19:47 PM 41.6560 -72.1930 213° Southwest 410 472 36,000  Level FlightAware ADS-B
Sat 04:20:19 PM 41.6060 -72.2370 213° Southwest 412 474 36,000  Level FlightAware ADS-B
Sat 04:20:54 PM 41.5500 -72.2860 213° Southwest 412 474 36,000  Level FlightAware ADS-B
Sat 04:21:26 PM 41.5040 -72.3260 213° Southwest 413 475 36,000  Level FlightAware ADS-B
Sat 04:22:08 PM 41.4370 -72.3840 213° Southwest 411 473 36,000  Level FlightAware ADS-B
Sat 04:22:38 PM 41.3850 -72.4300 214° Southwest 410 472 36,000  Level FlightAware ADS-B
Sat 04:23:17 PM 41.3280 -72.4790 213° Southwest 411 473 36,000  Level FlightAware ADS-B
Sat 04:23:54 PM 41.2650 -72.5340 213° Southwest 413 475 36,000  Level FlightAware ADS-B
Sat 04:24:23 PM 41.2170 -72.5750 213° Southwest 411 473 36,000  Level FlightAware ADS-B
Sat 04:25:02 PM 41.1530 -72.6310 213° Southwest 412 474 36,000  Level FlightAware ADS-B
Sat 04:25:37 PM 41.0980 -72.6780 213° Southwest 412 474 36,000  Level FlightAware ADS-B
Sat 04:26:14 PM 41.0380 -72.7300 213° Southwest 411 473 36,000  Level FlightAware ADS-B
Sat 04:26:44 PM 40.9950 -72.7670 213° Southwest 411 473 36,000  Level FlightAware ADS-B
Sat 04:27:19 PM 40.9337 -72.8194 213° Southwest 412 474 36,000  Level FlightAware ADS-B
Sat 04:27:50 PM 40.8840 -72.8619 213° Southwest 411 473 36,000  Level FlightAware ADS-B
Sat 04:28:21 PM 40.8351 -72.9036 213° Southwest 409 471 36,000  Level FlightAware ADS-B
Sat 04:28:59 PM 40.7753 -72.9546 213° Southwest 407 468 36,000  Level FlightAware ADS-B
Sat 04:29:31 PM 40.7249 -72.9976 213° Southwest 406 467 36,000  Level FlightAware ADS-B
Sat 04:30:05 PM 40.6717 -73.0427 213° Southwest 406 467 36,000  Level FlightAware ADS-B
Sat 04:30:41 PM 40.6145 -73.0912 213° Southwest 406 467 36,000  Level FlightAware ADS-B
Sat 04:31:13 PM 40.5642 -73.1337 213° Southwest 407 468 36,000  Level FlightAware ADS-B
Sat 04:31:50 PM 40.5054 -73.1832 213° Southwest 407 468 36,000  Level FlightAware ADS-B
Sat 04:32:37 PM 40.4305 -73.2463 213° Southwest 407 468 36,000  Level FlightAware ADS-B
Sat 04:33:08 PM 40.3804 -73.2884 213° Southwest 408 470 36,000  Level FlightAware ADS-B
Sat 04:33:44 PM 40.3239 -73.3358 213° Southwest 412 474 36,000  Level FlightAware ADS-B
Sat 04:34:23 PM 40.2617 -73.3877 212° Southwest 414 476 36,000  Level FlightAware ADS-B
Sat 04:34:54 PM 40.2106 -73.4304 213° Southwest 419 482 36,000  Level FlightAware ADS-B
Sat 04:35:25 PM 40.1606 -73.4719 212° Southwest 419 482 36,000  Level FlightAware ADS-B
Sat 04:36:03 PM 40.0990 -73.5240 213° Southwest 419 482 36,000  Level FlightAware ADS-B
Sat 04:36:37 PM 40.0428 -73.5698 212° Southwest 420 483 36,000  Level FlightAware ADS-B
Sat 04:37:12 PM 39.9845 -73.6180 212° Southwest 417 480 36,000  Level FlightAware ADS-B
Sat 04:37:50 PM 39.9270 -73.6660 213° Southwest 417 480 36,000  Level FlightAware ADS-B
Sat 04:38:02 PM 39.9032 -73.6854 212° Southwest 419 482 36,000  Level FlightAware ADS-B
Sat 04:38:47 PM 39.8296 -73.7460 212° Southwest 422 486 36,000  Level FlightAware ADS-B
Sat 04:39:18 PM 39.7794 -73.7872 212° Southwest 420 483 36,000  Level FlightAware ADS-B
Sat 04:39:48 PM 39.7290 -73.8286 212° Southwest 420 483 36,000  Level FlightAware ADS-B
Sat 04:40:24 PM 39.6702 -73.8767 212° Southwest 419 482 36,000  Level FlightAware ADS-B
Sat 04:40:56 PM 39.6181 -73.9194 212° Southwest 420 483 36,000  Level FlightAware ADS-B
Sat 04:41:26 PM 39.5684 -73.9599 212° Southwest 421 484 36,000  Level FlightAware ADS-B
Sat 04:42:00 PM 39.5126 -74.0054 212° Southwest 421 484 36,000  Level FlightAware ADS-B
Sat 04:42:32 PM 39.4609 -74.0474 212° Southwest 421 484 36,000  Level FlightAware ADS-B
Sat 04:43:06 PM 39.4042 -74.0934 212° Southwest 421 484 36,000  Level FlightAware ADS-B
Sat 04:43:23 PM 39.3765 -74.1128 208° Southwest 429 494 36,000  Level FlightAware ADS-B
Sat 04:43:28 PM 39.3664 -74.1182 202° Southwest 433 498 36,000  Level FlightAware ADS-B
Sat 04:43:35 PM 39.3518 -74.1247 199° South 436 502 36,000  Level FlightAware ADS-B
Sat 04:44:18 PM 39.2680 -74.1560 196° South 440 506 36,000  Level FlightAware ADS-B
Sat 04:44:31 PM 39.2429 -74.1648 195° South 441 507 36,000  Level FlightAware ADS-B
Sat 04:45:05 PM 39.1769 -74.1889 196° South 440 506 36,000  Level FlightAware ADS-B
Sat 04:45:36 PM 39.1164 -74.2110 196° South 440 506 36,000  Level FlightAware ADS-B
Sat 04:46:08 PM 39.0538 -74.2338 196° South 440 506 36,000  Level FlightAware ADS-B
Sat 04:46:38 PM 38.9945 -74.2556 196° South 439 505 36,000  Level FlightAware ADS-B
Sat 04:47:09 PM 38.9325 -74.2786 196° South 439 505 36,000  Level FlightAware ADS-B
Sat 04:47:49 PM 38.8598 -74.3183 203° Southwest 427 491 36,000  Level FlightAware ADS-B
Sat 04:48:14 PM 38.8190 -74.3500 211° Southwest 424 488 36,000  Level FlightAware ADS-B
Sat 04:48:44 PM 38.7693 -74.3926 214° Southwest 424 488 36,000  Level FlightAware ADS-B
Sat 04:49:21 PM 38.7085 -74.4440 213° Southwest 425 489 36,000  Level FlightAware ADS-B
Sat 04:50:02 PM 38.6411 -74.5007 213° Southwest 426 490 36,000  Level FlightAware ADS-B
Sat 04:50:32 PM 38.5916 -74.5424 213° Southwest 427 491 36,000  Level FlightAware ADS-B
Sat 04:51:03 PM 38.5413 -74.5846 213° Southwest 427 491 36,000  Level FlightAware ADS-B
Sat 04:51:35 PM 38.4950 -74.6230 213° Southwest 427 491 36,000  Level FlightAware ADS-B
Sat 04:52:14 PM 38.4320 -74.6760 213° Southwest 428 493 36,000  Level FlightAware ADS-B
Sat 04:52:49 PM 38.3657 -74.7314 213° Southwest 428 493 36,000  Level FlightAware ADS-B
Sat 04:53:19 PM 38.3159 -74.7729 213° Southwest 428 493 36,000  Level FlightAware ADS-B
Sat 04:53:53 PM 38.2589 -74.8203 213° Southwest 429 494 36,000  Level FlightAware ADS-B
Sat 04:54:34 PM 38.2060 -74.8640 213° Southwest 423 487 36,000  Level FlightAware ADS-B
Sat 04:54:42 PM 38.1777 -74.8876 213° Southwest 429 494 36,000  Level FlightAware ADS-B
Sat 04:55:13 PM 38.1262 -74.9303 213° Southwest 430 495 36,000  Level FlightAware ADS-B
Sat 04:55:45 PM 38.0726 -74.9746 213° Southwest 430 495 36,000  Level FlightAware ADS-B
Sat 04:56:32 PM 37.9952 -75.0385 213° Southwest 430 495 36,000  Level FlightAware ADS-B
Sat 04:57:36 PM 37.8990 -75.1170 213° Southwest 422 486 36,000  Level FlightAware ADS-B
Sat 04:58:03 PM 37.8452 -75.1617 213° Southwest 429 494 36,000  Level FlightAware ADS-B
Sat 04:58:34 PM 37.7924 -75.2051 213° Southwest 430 495 36,000  Level FlightAware ADS-B
Sat 04:59:04 PM 37.7418 -75.2464 213° Southwest 429 494 36,000  Level FlightAware ADS-B
Sat 04:59:35 PM 37.6912 -75.2878 213° Southwest 428 493 36,000  Level FlightAware ADS-B
Sat 05:00:05 PM 37.6402 -75.3293 213° Southwest 427 491 36,000  Level FlightAware ADS-B
Sat 05:00:36 PM 37.5909 -75.3694 213° Southwest 427 491 36,000  Level FlightAware ADS-B
Sat 05:01:08 PM 37.5383 -75.4121 213° Southwest 425 489 36,000  Level FlightAware ADS-B
Sat 05:01:39 PM 37.4852 -75.4551 213° Southwest 425 489 36,000  Level FlightAware ADS-B
Sat 05:02:15 PM 37.4300 -75.5000 213° Southwest 424 488 36,000  Level FlightAware ADS-B
Sat 05:02:55 PM 37.3650 -75.5520 212° Southwest 424 488 36,000  Level FlightAware ADS-B
Sat 05:03:30 PM 37.3120 -75.5950 213° Southwest 426 490 36,000  Level FlightAware ADS-B
Sat 05:04:18 PM 37.2222 -75.6673 213° Southwest 426 490 36,000  Level FlightAware ADS-B
Sat 05:04:49 PM 37.1699 -75.7094 213° Southwest 427 491 36,000  Level FlightAware ADS-B
Sat 05:05:27 PM 37.1075 -75.7593 213° Southwest 426 490 36,000  Level FlightAware ADS-B
Sat 05:05:59 PM 37.0548 -75.8015 213° Southwest 426 490 36,000  Level FlightAware ADS-B
Sat 05:06:20 PM 37.0187 -75.8292 211° Southwest 428 493 36,000  Level FlightAware ADS-B
Sat 05:06:33 PM 36.9962 -75.8420 204° Southwest 431 496 36,000  Level FlightAware ADS-B
Sat 05:07:04 PM 36.9381 -75.8714 202° Southwest 432 497 36,000  Level FlightAware ADS-B
Sat 05:07:34 PM 36.8827 -75.9002 203° Southwest 431 496 36,000  Level FlightAware ADS-B
Sat 05:08:04 PM 36.8269 -75.9291 203° Southwest 431 496 36,000  Level FlightAware ADS-B
Sat 05:08:39 PM 36.7639 -75.9617 203° Southwest 432 497 36,000  Level FlightAware ADS-B
Sat 05:09:11 PM 36.7045 -75.9926 203° Southwest 432 497 36,000  Level FlightAware ADS-B
Sat 05:10:12 PM 36.6070 -76.0430 203° Southwest 432 497 36,000  Level FlightAware ADS-B
Sat 05:11:08 PM 36.5080 -76.1120 209° Southwest 420 483 36,000  Level FlightAware ADS-B
Sat 05:11:16 PM 36.4820 -76.1160 187° South 425 489 36,000  Level FlightAware ADS-B
Sat 05:12:00 PM 36.3970 -76.1520 199° South 430 495 36,000  Level FlightAware ADS-B
Sat 05:12:35 PM 36.3320 -76.1850 202° Southwest 431 496 36,000  Level FlightAware ADS-B
Sat 05:13:10 PM 36.2670 -76.2180 202° Southwest 417 480 36,000  Level FlightAware ADS-B
Sat 05:13:45 PM 36.2060 -76.2490 202° Southwest 422 486 36,000  Level FlightAware ADS-B
Sat 05:14:20 PM 36.1420 -76.2820 203° Southwest 415 478 36,000  Level FlightAware ADS-B
Sat 05:14:55 PM 36.0770 -76.3150 202° Southwest 416 479 36,000  Level FlightAware ADS-B
Sat 05:15:41 PM 36.0060 -76.3510 202° Southwest 417 480 36,000  Level FlightAware ADS-B
Sat 05:16:16 PM 35.9530 -76.3770 202° Southwest 417 480 36,000  Level FlightAware ADS-B
Sat 05:16:49 PM 35.8820 -76.4130 202° Southwest 421 484 36,000  Level FlightAware ADS-B
Sat 05:17:25 PM 35.8270 -76.4410 202° Southwest 421 484 36,000  Level FlightAware ADS-B
Sat 05:18:13 PM 35.7200 -76.4960 203° Southwest 431 496 36,000  Level FlightAware ADS-B
Sat 05:18:49 PM 35.6630 -76.5240 202° Southwest 431 496 36,000  Level FlightAware ADS-B
Sat 05:19:25 PM 35.6070 -76.5520 202° Southwest 431 496 36,000  Level FlightAware ADS-B
Sat 05:20:02 PM 35.5490 -76.5810 202° Southwest 431 496 36,000  Level FlightAware ADS-B
Sat 05:20:38 PM 35.4920 -76.6090 202° Southwest 431 496 36,000  Level FlightAware ADS-B
Sat 05:21:14 PM 35.4350 -76.6370 202° Southwest 431 496 36,000  Level FlightAware ADS-B
Sat 05:21:50 PM 35.3790 -76.6650 202° Southwest 431 496 36,000  Level FlightAware ADS-B
Sat 05:22:27 PM 35.3210 -76.6940 202° Southwest 431 496 36,000  Level FlightAware ADS-B
Sat 05:23:03 PM 35.2640 -76.7220 202° Southwest 431 496 36,000  Level FlightAware ADS-B
Sat 05:23:39 PM 35.2080 -76.7500 202° Southwest 431 496 36,000  Level FlightAware ADS-B
Sat 05:24:15 PM 35.1510 -76.7780 202° Southwest 431 496 36,000  Level FlightAware ADS-B
Sat 05:24:51 PM 35.0940 -76.8060 202° Southwest 431 496 36,000  Level FlightAware ADS-B
Sat 05:25:27 PM 35.0380 -76.8340 202° Southwest 431 496 36,000  Level FlightAware ADS-B
Sat 05:26:03 PM 34.9810 -76.8610 201° Southwest 431 496 36,000  Level FlightAware ADS-B
Sat 05:26:39 PM 34.9250 -76.8890 202° Southwest 431 496 36,000  Level FlightAware ADS-B
Sat 05:27:17 PM 34.8650 -76.9190 202° Southwest 431 496 36,000  Level FlightAware ADS-B
Sat 05:28:00 PM 34.6094 -77.0481 202° Southwest 445 512 36,000  Level Washington Center
Sat 05:33:36 PM 33.9600 -77.3630 202° Southwest 454 522 36,000  Level FlightAware ADS-B
Sat 05:34:17 PM 33.8730 -77.4050 202° Southwest 454 522 36,000  Level FlightAware ADS-B
Sat 05:34:52 PM 33.8170 -77.4310 201° Southwest 454 522 36,000  Level FlightAware ADS-B
Sat 05:35:27 PM 33.7430 -77.4670 202° Southwest 454 522 36,000  Level FlightAware ADS-B
Sat 05:36:02 PM 33.6680 -77.5030 202° Southwest 453 521 36,000  Level FlightAware ADS-B
Sat 05:36:45 PM 33.5900 -77.5390 201° Southwest 453 521 36,000  Level FlightAware ADS-B
Sat 05:37:20 PM 33.5320 -77.5660 201° Southwest 453 521 36,000  Level FlightAware ADS-B
Sat 05:37:56 PM 33.4720 -77.5940 201° Southwest 453 521 36,000  Level FlightAware ADS-B
Sat 05:38:33 PM 33.4110 -77.6220 201° Southwest 453 521 36,000  Level FlightAware ADS-B
Sat 05:39:10 PM 33.3490 -77.6500 201° Southwest 453 521 36,000  Level FlightAware ADS-B
Sat 05:39:46 PM 33.2890 -77.6780 201° Southwest 453 521 36,000  Level FlightAware ADS-B
Sat 05:40:22 PM 33.2300 -77.7050 201° Southwest 453 521 36,000  Level FlightAware ADS-B
Sat 05:40:58 PM 33.1700 -77.7330 201° Southwest 453 521 36,000  Level FlightAware ADS-B
Sat 05:41:17 PM 33.6370 -77.5180 21° North 36,000  Level FlightAware ADS-B
Sat 05:43:32 PM 32.7830 -77.9220 202° Southwest 36,000  Level FlightAware ADS-B
Sat 05:44:27 PM 32.6860 -77.9660 201° Southwest 461 531 36,000  Level FlightAware ADS-B
Sat 05:45:07 PM 32.5920 -78.0100 202° Southwest 464 534 36,000  Level FlightAware ADS-B
Sat 05:45:42 PM 32.5210 -78.0430 201° Southwest 464 534 36,000  Level FlightAware ADS-B
Sat 05:46:17 PM 32.4510 -78.0760 202° Southwest 463 533 36,000  Level FlightAware ADS-B
Sat 05:47:07 PM 32.3610 -78.1180 202° Southwest 462 532 36,000  Level FlightAware ADS-B
Sat 05:47:47 PM 32.2740 -78.1580 201° Southwest 463 533 36,000  Level FlightAware ADS-B
Sat 05:48:17 PM 32.2160 -78.1840 201° Southwest 466 536 36,000  Level FlightAware ADS-B
Sat 05:48:53 PM 32.1510 -78.2140 201° Southwest 466 536 36,000  Level FlightAware ADS-B
Sat 05:49:34 PM 32.0750 -78.2490 201° Southwest 466 536 36,000  Level FlightAware ADS-B
Sat 05:50:10 PM 32.0130 -78.2770 201° Southwest 466 536 36,000  Level FlightAware ADS-B
Sat 05:50:47 PM 31.9500 -78.3060 201° Southwest 466 536 36,000  Level FlightAware ADS-B
Sat 05:51:24 PM 31.8870 -78.3340 201° Southwest 466 536 36,000  Level FlightAware ADS-B
Sat 05:52:00 PM 31.8250 -78.3620 201° Southwest 466 536 36,000  Level FlightAware ADS-B
Sat 05:52:36 PM 31.7630 -78.3900 201° Southwest 466 536 36,000  Level FlightAware ADS-B
Sat 05:53:12 PM 31.7020 -78.4180 201° Southwest 466 536 36,000  Level FlightAware ADS-B
Sat 05:53:48 PM 31.6400 -78.4460 201° Southwest 466 536 36,000  Level FlightAware ADS-B
Sat 05:54:24 PM 31.5790 -78.4730 201° Southwest 466 536 36,000  Level FlightAware ADS-B
Sat 05:55:00 PM 31.5170 -78.5010 201° Southwest 466 536 36,000  Level FlightAware ADS-B
Sat 05:55:36 PM 31.4550 -78.5290 201° Southwest 466 536 36,000  Level FlightAware ADS-B
Sat 05:56:12 PM 31.3940 -78.5570 201° Southwest 466 536 36,000  Level FlightAware ADS-B
Sat 05:56:49 PM 31.3310 -78.5850 201° Southwest 466 536 36,000  Level FlightAware ADS-B
Sat 05:57:26 PM 31.2670 -78.6140 201° Southwest 466 536 36,000  Level FlightAware ADS-B
Sat 05:58:02 PM 31.2060 -78.6410 201° Southwest 466 536 36,000  Level FlightAware ADS-B
Sat 05:58:38 PM 31.1440 -78.6690 201° Southwest 466 536 36,000  Level FlightAware ADS-B
Sat 05:59:54 PM 30.8214 -78.8192 201° Southwest 472 543 36,000  Level Jacksonville Center
Sat 06:00:54 PM 30.6958 -78.8753 201° Southwest 472 543 36,000  Level Jacksonville Center
Sat 06:01:48 PM 30.5781 -78.9269 201° Southwest 470 541 36,000  Level Miami Center
Sat 06:02:48 PM 30.4647 -78.9825 203° Southwest 484 557 36,000  Level Miami Center
Sat 06:03:48 PM 30.3347 -79.0306 198° South 476 548 36,000  Level Miami Center
Sat 06:04:48 PM 30.2047 -79.0783 198° South 477 549 36,000  Level Miami Center
Sat 06:05:48 PM 30.0850 -79.1261 199° South 477 549 36,000  Level Miami Center
Sat 06:06:48 PM 29.9717 -79.1739 200° South 471 542 36,000  Level Miami Center
Sat 06:07:48 PM 29.8500 -79.2264 201° Southwest 471 542 36,000  Level Miami Center
Sat 06:08:48 PM 29.7136 -79.2736 197° South 465 535 36,000  Level Miami Center
Sat 06:09:48 PM 29.5917 -79.3258 200° South 465 535 36,000  Level Miami Center
Sat 06:10:48 PM 29.4681 -79.3706 197° South 471 542 36,000  Level Miami Center
Sat 06:16:42 PM 28.7290 -79.6410 197° South 474 545 36,000  Level FlightAware ADS-B
Sat 06:17:21 PM 28.6590 -79.6670 198° South 474 545 36,000  Level FlightAware ADS-B
Sat 06:17:57 PM 28.5720 -79.7000 198° South 475 547 36,000  Level FlightAware ADS-B
Sat 06:18:32 PM 28.4980 -79.7280 198° South 478 550 36,000  Level FlightAware ADS-B
Sat 06:19:07 PM 28.4250 -79.7550 198° South 471 542 36,000  Level FlightAware ADS-B
Sat 06:19:42 PM 28.3540 -79.7810 198° South 478 550 36,000  Level FlightAware ADS-B
Sat 06:20:21 PM 28.2680 -79.8140 199° South 471 542 36,000  Level FlightAware ADS-B
Sat 06:20:57 PM 28.1940 -79.8410 198° South 473 544 36,000  Level FlightAware ADS-B
Sat 06:21:37 PM 28.1080 -79.8730 198° South 475 547 36,000  Level FlightAware ADS-B
Sat 06:22:16 PM 28.0240 -79.9040 198° South 475 547 36,000  Level FlightAware ADS-B
Sat 06:22:55 PM 27.9460 -79.9330 198° South 473 544 36,000  Level FlightAware ADS-B
Sat 06:23:27 PM 27.8740 -79.9600 198° South 473 544 36,000  Level FlightAware ADS-B
Sat 06:24:01 PM 27.8010 -79.9870 198° South 473 544 36,000  Level FlightAware ADS-B
Sat 06:24:51 PM 27.6970 -80.0250 198° South 473 544 36,000  Level FlightAware ADS-B
Sat 06:25:32 PM 27.6120 -80.0570 198° South 475 547 36,000  Level FlightAware ADS-B
Sat 06:26:11 PM 27.5230 -80.0890 198° South 488 562 36,000  Level FlightAware ADS-B
Sat 06:26:46 PM 27.4500 -80.1160 198° South 490 564 36,000  Level FlightAware ADS-B
Sat 06:27:17 PM 27.3840 -80.1400 198° South 490 564 36,000  Level FlightAware ADS-B
Sat 06:27:52 PM 27.3080 -80.1680 198° South 490 564 36,000  Level FlightAware ADS-B
Sat 06:28:31 PM 27.2210 -80.2000 198° South 490 564 36,000  Level FlightAware ADS-B
Sat 06:29:07 PM 27.1450 -80.2280 198° South 489 563 36,000  Level FlightAware ADS-B
Sat 06:29:47 PM 27.0610 -80.2580 198° South 489 563 36,000  Level FlightAware ADS-B
Sat 06:30:22 PM 26.9840 -80.2860 198° South 488 562 36,000  Level FlightAware ADS-B
Sat 06:30:56 PM 26.9090 -80.3130 198° South 489 563 36,000  Level FlightAware ADS-B
Sat 06:31:33 PM 26.8260 -80.3430 198° South 492 566 36,000  Level FlightAware ADS-B
Sat 06:32:14 PM 26.7380 -80.3750 198° South 492 566 36,000  Level FlightAware ADS-B
Sat 06:32:49 PM 26.6650 -80.4020 198° South 492 566 36,000  Level FlightAware ADS-B
Sat 06:33:26 PM 26.5870 -80.4300 198° South 491 565 36,000  Level FlightAware ADS-B
Sat 06:33:55 PM 26.5230 -80.4530 198° South 492 566 36,000  Level FlightAware ADS-B
Sat 06:34:35 PM 26.4380 -80.4840 198° South 491 565 36,000  Level FlightAware ADS-B
Sat 06:35:20 PM 26.3380 -80.5200 198° South 491 565 36,000  Level FlightAware ADS-B
Sat 06:35:55 PM 26.2610 -80.5470 197° South 493 567 36,000  Level FlightAware ADS-B
Sat 06:36:35 PM 26.1750 -80.5780 198° South 487 560 36,000  Level FlightAware ADS-B
Sat 06:37:11 PM 26.0970 -80.6060 198° South 487 560 36,000  Level FlightAware ADS-B
Sat 06:37:40 PM 26.0340 -80.6290 198° South 487 560 36,000  Level FlightAware ADS-B
Sat 06:38:15 PM 25.9550 -80.6570 198° South 493 567 36,000  Level FlightAware ADS-B
Sat 06:38:55 PM 25.8710 -80.6870 198° South 493 567 36,000  Level FlightAware ADS-B
Sat 06:39:25 PM 25.8050 -80.7100 197° South 493 567 36,000  Level FlightAware ADS-B
Sat 06:40:00 PM 25.7280 -80.7380 198° South 492 566 36,000  Level FlightAware ADS-B
Sat 06:40:40 PM 25.6410 -80.7680 197° South 490 564 36,000  Level FlightAware ADS-B
Sat 06:41:15 PM 25.5680 -80.7940 198° South 491 565 36,000  Level FlightAware ADS-B
Sat 06:41:45 PM 25.5020 -80.8250 203° Southwest 494 568 36,000  Level FlightAware ADS-B
Sat 06:42:25 PM 25.4350 -80.8920 222° Southwest 492 566 36,000  Level FlightAware ADS-B
Sat 06:42:55 PM 25.3860 -80.9480 226° Southwest 492 566 36,000  Level FlightAware ADS-B
Sat 06:43:30 PM 25.3380 -81.0030 226° Southwest 493 567 36,000  Level FlightAware ADS-B
Sat 06:44:05 PM 25.2740 -81.0760 226° Southwest 493 567 36,000  Level FlightAware ADS-B
Sat 06:44:40 PM 25.2200 -81.1380 226° Southwest 493 567 36,000  Level FlightAware ADS-B
Sat 06:45:20 PM 25.1550 -81.2130 226° Southwest 493 567 36,000  Level FlightAware ADS-B
Sat 06:45:57 PM 25.0980 -81.2780 226° Southwest 493 567 36,000  Level FlightAware ADS-B
Sat 06:46:36 PM 25.0310 -81.3540 226° Southwest 493 567 36,000 -400 Level FlightAware ADS-B
Sat 06:47:12 PM 24.9790 -81.4140 226° Southwest 489 563 35,500 -909 Descending FlightAware ADS-B
Sat 06:47:42 PM 24.9290 -81.4710 226° Southwest 476 548 35,000 -1,200 Descending FlightAware ADS-B
Sat 06:48:17 PM 24.8750 -81.5320 226° Southwest 484 557 34,200 -1,371 Descending FlightAware ADS-B
Sat 06:48:52 PM 24.8220 -81.5930 226° Southwest 473 544 33,400 -1,519 Descending FlightAware ADS-B
Sat 06:49:36 PM 24.7520 -81.6730 226° Southwest 464 534 32,200 -1,519 Descending FlightAware ADS-B
Sat 06:50:11 PM 24.7010 -81.7300 225° Southwest 464 534 31,400 -1,268 Descending FlightAware ADS-B
Sat 06:50:47 PM 24.6470 -81.7910 226° Southwest 452 520 30,700 -1,091 Descending FlightAware ADS-B
Sat 06:51:17 PM 24.6040 -81.8400 226° Southwest 447 514 30,200 -943 Descending FlightAware ADS-B
Sat 06:51:57 PM 24.5460 -81.9060 226° Southwest 441 507 29,600 -878 Descending FlightAware ADS-B
Sat 06:52:39 PM 24.4910 -81.9680 226° Southwest 442 509 29,000 -1,013 Descending FlightAware ADS-B
Sat 06:53:14 PM 24.4390 -82.0270 226° Southwest 428 493 28,300 -1,029 Descending FlightAware ADS-B
Sat 06:53:49 PM 24.3900 -82.0820 226° Southwest 422 486 27,800 -1,000 Descending FlightAware ADS-B
Sat 06:54:26 PM 24.3350 -82.1430 225° Southwest 417 480 27,100 -1,075 Descending FlightAware ADS-B
Sat 06:54:56 PM 24.2980 -82.1850 226° Southwest 418 481 26,600 -441 Descending FlightAware ADS-B
Sat 06:55:34 PM 24.2550 -82.2340 226° Southwest 418 481 26,600  Level FlightAware ADS-B
Sat 06:56:10 PM 24.2140 -82.2810 226° Southwest 418 481 26,600  Level FlightAware ADS-B
Sat 06:56:47 PM 24.1710 -82.3290 226° Southwest 418 481 26,600 -1,964 Level FlightAware ADS-B
Sat 06:57:26 PM 24.0950 -82.4120 225° Southwest 23,900 -2,959 Descending FlightAware ADS-B
Sat 06:58:00 PM 24.0508 -82.4525 225° Southwest 430 495 23,000 -1,723 Descending Miami Center
Sat 06:59:00 PM 23.9506 -82.5072 207° Southwest 424 488 21,200 -1,800 Descending Miami Center
Sat 07:00:00 PM 22.9891 -82.4091 180° South  Level Estimated
Sat 07:07:00 PM 22.9891 -82.4091 180° South  Level Estimated
Sat 07:08:00 PM 22.9891 -82.4091 180° South  Level Estimated
Sat 07:09:00 PM 22.9891 -82.4091 180° South  Level Estimated
Sat 07:10:00 PM 22.9891 -82.4091 180° South  Level Estimated
Sat 07:11:00 PM 22.9891 -82.4091 180° South  Level Estimated
Sat 07:12:00 PM 22.9891 -82.4091 180° South  Level Estimated
Sat 07:13:00 PM 22.9891 -82.4091 180° South  Level Estimated
Sat 07:14:00 PM 22.9891 -82.4091 180° South  Level Estimated
Sat 07:15:00 PM 22.9891 -82.4091 180° South  Level Estimated
Sat 07:16:00 PM 22.9891 -82.4091 180° South  Level Estimated
Sat 07:17:00 PM 22.9891 -82.4091 180° South  Level Estimated
Sat 07:18:00 PM 22.9891 -82.4091 180° South  Level Estimated
Sat 07:19:00 PM 22.9891 -82.4091 180° South  Level Estimated
Sat 07:20:00 PM 22.9891 -82.4091 180° South  Level Estimated
Sat 07:21:00 PM 22.9891 -82.4091 180° South  Level Estimated
Sat 07:22:00 PM 22.9891 -82.4091 180° South  Level Estimated
Sat 07:23:00 PM 22.9891 -82.4091 180° South  Level Estimated
Sat 07:24:00 PM 22.9891 -82.4091 180° South  Level Estimated
Sat 07:25:00 PM 22.9891 -82.4091 180° South  Level Estimated
Sat 07:26:00 PM 22.9891 -82.4091 180° South  Level Estimated
Sat 07:27:00 PM 22.9891 -82.4091 180° South  Level Estimated
Sat 07:28:00 PM 22.9891 -82.4091 180° South  Level Estimated
Sat 07:29:00 PM 22.9891 -82.4091 180° South  Level Estimated

Login

Don't have an account? Register now (free) for customized features, flight alerts, and more!